<?xml version="1.0" encoding="UTF-8"?>
<gpx xmlns="http://www.topografix.com/GPX/1/1" xmlns:gpsies="http://www.gpsies.com/GPX/1/0" creator="GPSies http://www.gpsies.com - GBI Toskana 2018 Day 4 Track 1 final (San Gimignano-Pisa)" version="1.1" xmlns:xsi="http://www.w3.org/2001/XMLSchema-instance" xsi:schemaLocation="http://www.topografix.com/GPX/1/1 http://www.topografix.com/GPX/1/1/gpx.xsd http://www.gpsies.com/GPX/1/0 http://www.gpsies.com/gpsies.xsd">
  <metadata>
    <name>GBIIT21 D4 T1</name>
    <author>
      <name>TOAO</name>
      <link href="http://www.gpsies.com/mapUser.do?username=TOAO">
        <text>TOAO on GPSies.com</text>
        <type>GPSiesUserOnWeb</type>
      </link>
    </author>
    <link href="http://www.gpsies.com/map.do?fileId=bfotbhpmdmhjjqac">
      <text>GBIIT21 D4 T1</text>
      <type>trackOnWeb</type>
    </link>
    <time>2018-03-27T17:49:44Z</time>
    <extensions>
      <gpsies:property>one-way trip</gpsies:property>
      <gpsies:trackLengthMeter>89868.54877094533</gpsies:trackLengthMeter>
      <gpsies:totalAscentMeter>955.0</gpsies:totalAscentMeter>
      <gpsies:totalDescentMeter>1166.0</gpsies:totalDescentMeter>
      <gpsies:minHeightMeter>2.0</gpsies:minHeightMeter>
      <gpsies:maxHeightMeter>519.0</gpsies:maxHeightMeter>
    </extensions>
  </metadata>
  <wpt lat="43.67948057" lon="10.85165977">
    <ele>152.00000</ele>
    <name>San Miniato</name>
    <sym>sightseeing</sym>
    <type>Sightseeing</type>
  </wpt>
  <wpt lat="43.68045822" lon="10.85538268">
    <ele>126.00000</ele>
    <name>Steep ascent</name>
    <sym>attention</sym>
    <type>Attention</type>
  </wpt>
  <wpt lat="43.67935642" lon="10.63377857">
    <ele>21.000000</ele>
    <name>Heavy traffic</name>
    <sym>attention</sym>
    <type>Attention</type>
  </wpt>
  <wpt lat="43.70551496" lon="10.43847084">
    <ele>7.0000000</ele>
    <name>Tour finish/Hotel San Ranieri</name>
    <sym>generic</sym>
    <type>Generic</type>
  </wpt>
  <trk>
    <name>GBIIT21 D4 T1</name>
    <link href="http://www.gpsies.com/map.do?fileId=bfotbhpmdmhjjqac">
      <type>trackOnWeb</type>
    </link>
    <link href="http://www.gpsies.com/charts/bf/map/bfotbhpmdmhjjqac_map.png">
      <type>elevationChartUrlMap</type>
    </link>
    <link href="http://www.gpsies.com/charts/bf/mapThumb/bfotbhpmdmhjjqac_mapThumb.png">
      <type>elevationChartUrlMapThumb</type>
    </link>
    <link href="http://www.gpsies.com/charts/bf/tab/bfotbhpmdmhjjqac_tab.png">
      <type>elevationChartUrlTab</type>
    </link>
    <trkseg>
      <trkpt lat="43.45862750" lon="11.05337260">
        <ele>217.00000</ele>
        <time>2010-01-01T00:00:00Z</time>
      </trkpt>
      <trkpt lat="43.45865870" lon="11.05058310">
        <ele>232.00000</ele>
        <time>2010-01-01T00:01:21Z</time>
      </trkpt>
      <trkpt lat="43.45904810" lon="11.04875920">
        <ele>237.00000</ele>
        <time>2010-01-01T00:02:16Z</time>
      </trkpt>
      <trkpt lat="43.46143110" lon="11.04607700">
        <ele>261.00000</ele>
        <time>2010-01-01T00:04:19Z</time>
      </trkpt>
      <trkpt lat="43.46161800" lon="11.04540100">
        <ele>260.00000</ele>
        <time>2010-01-01T00:04:40Z</time>
      </trkpt>
      <trkpt lat="43.46168030" lon="11.04471440">
        <ele>262.00000</ele>
        <time>2010-01-01T00:05:00Z</time>
      </trkpt>
      <trkpt lat="43.46158680" lon="11.04328750">
        <ele>276.00000</ele>
        <time>2010-01-01T00:05:42Z</time>
      </trkpt>
      <trkpt lat="43.46161020" lon="11.04280470">
        <ele>277.00000</ele>
        <time>2010-01-01T00:05:56Z</time>
      </trkpt>
      <trkpt lat="43.46178150" lon="11.04223070">
        <ele>278.00000</ele>
        <time>2010-01-01T00:06:14Z</time>
      </trkpt>
      <trkpt lat="43.46211630" lon="11.04173710">
        <ele>282.00000</ele>
        <time>2010-01-01T00:06:33Z</time>
      </trkpt>
      <trkpt lat="43.46226040" lon="11.04166740">
        <ele>284.00000</ele>
        <time>2010-01-01T00:06:40Z</time>
      </trkpt>
      <trkpt lat="43.46231000" lon="11.04074000">
        <ele>285.00000</ele>
        <time>2010-01-01T00:07:07Z</time>
      </trkpt>
      <trkpt lat="43.46221000" lon="11.04030000">
        <ele>285.00000</ele>
        <time>2010-01-01T00:07:20Z</time>
      </trkpt>
      <trkpt lat="43.46224000" lon="11.04007000">
        <ele>286.00000</ele>
        <time>2010-01-01T00:07:27Z</time>
      </trkpt>
      <trkpt lat="43.46239000" lon="11.04004000">
        <ele>287.00000</ele>
        <time>2010-01-01T00:07:33Z</time>
      </trkpt>
      <trkpt lat="43.46312000" lon="11.04059000">
        <ele>293.00000</ele>
        <time>2010-01-01T00:08:06Z</time>
      </trkpt>
      <trkpt lat="43.46336000" lon="11.04129000">
        <ele>298.00000</ele>
        <time>2010-01-01T00:08:29Z</time>
      </trkpt>
      <trkpt lat="43.46350000" lon="11.04202000">
        <ele>300.00000</ele>
        <time>2010-01-01T00:08:51Z</time>
      </trkpt>
      <trkpt lat="43.46364000" lon="11.04239000">
        <ele>300.00000</ele>
        <time>2010-01-01T00:09:03Z</time>
      </trkpt>
      <trkpt lat="43.46377000" lon="11.04248000">
        <ele>301.00000</ele>
        <time>2010-01-01T00:09:09Z</time>
      </trkpt>
      <trkpt lat="43.46445000" lon="11.04253000">
        <ele>307.00000</ele>
        <time>2010-01-01T00:09:36Z</time>
      </trkpt>
      <trkpt lat="43.46455760" lon="11.04190340">
        <ele>310.00000</ele>
        <time>2010-01-01T00:09:54Z</time>
      </trkpt>
      <trkpt lat="43.46479000" lon="11.04166000">
        <ele>308.00000</ele>
        <time>2010-01-01T00:10:06Z</time>
      </trkpt>
      <trkpt lat="43.46574510" lon="11.04178540">
        <ele>308.00000</ele>
        <time>2010-01-01T00:10:45Z</time>
      </trkpt>
      <trkpt lat="43.46626000" lon="11.04155000">
        <ele>308.00000</ele>
        <time>2010-01-01T00:11:06Z</time>
      </trkpt>
      <trkpt lat="43.46658000" lon="11.04116000">
        <ele>312.00000</ele>
        <time>2010-01-01T00:11:23Z</time>
      </trkpt>
      <trkpt lat="43.46696000" lon="11.04052000">
        <ele>313.00000</ele>
        <time>2010-01-01T00:11:47Z</time>
      </trkpt>
      <trkpt lat="43.46737000" lon="11.04022000">
        <ele>318.00000</ele>
        <time>2010-01-01T00:12:06Z</time>
      </trkpt>
      <trkpt lat="43.46780000" lon="11.04005000">
        <ele>319.00000</ele>
        <time>2010-01-01T00:12:24Z</time>
      </trkpt>
      <trkpt lat="43.46812000" lon="11.04005000">
        <ele>320.00000</ele>
        <time>2010-01-01T00:12:37Z</time>
      </trkpt>
      <trkpt lat="43.46846000" lon="11.04015000">
        <ele>322.00000</ele>
        <time>2010-01-01T00:12:51Z</time>
      </trkpt>
      <trkpt lat="43.46887000" lon="11.04051000">
        <ele>320.00000</ele>
        <time>2010-01-01T00:13:10Z</time>
      </trkpt>
      <trkpt lat="43.46908000" lon="11.04065000">
        <ele>317.00000</ele>
        <time>2010-01-01T00:13:19Z</time>
      </trkpt>
      <trkpt lat="43.47021000" lon="11.04101000">
        <ele>308.00000</ele>
        <time>2010-01-01T00:14:06Z</time>
      </trkpt>
      <trkpt lat="43.47037000" lon="11.04102000">
        <ele>308.00000</ele>
        <time>2010-01-01T00:14:12Z</time>
      </trkpt>
      <trkpt lat="43.47117000" lon="11.04075000">
        <ele>304.00000</ele>
        <time>2010-01-01T00:14:45Z</time>
      </trkpt>
      <trkpt lat="43.47146820" lon="11.04098080">
        <ele>304.00000</ele>
        <time>2010-01-01T00:14:59Z</time>
      </trkpt>
      <trkpt lat="43.47172510" lon="11.04146890">
        <ele>301.00000</ele>
        <time>2010-01-01T00:15:16Z</time>
      </trkpt>
      <trkpt lat="43.47185750" lon="11.04144750">
        <ele>297.00000</ele>
        <time>2010-01-01T00:15:22Z</time>
      </trkpt>
      <trkpt lat="43.47198980" lon="11.04128120">
        <ele>294.00000</ele>
        <time>2010-01-01T00:15:29Z</time>
      </trkpt>
      <trkpt lat="43.47197040" lon="11.04090030">
        <ele>292.00000</ele>
        <time>2010-01-01T00:15:40Z</time>
      </trkpt>
      <trkpt lat="43.47141370" lon="11.03924270">
        <ele>288.00000</ele>
        <time>2010-01-01T00:16:33Z</time>
      </trkpt>
      <trkpt lat="43.47118000" lon="11.03818000">
        <ele>278.00000</ele>
        <time>2010-01-01T00:17:05Z</time>
      </trkpt>
      <trkpt lat="43.47117000" lon="11.03459000">
        <ele>271.00000</ele>
        <time>2010-01-01T00:18:50Z</time>
      </trkpt>
      <trkpt lat="43.47128000" lon="11.03360000">
        <ele>269.00000</ele>
        <time>2010-01-01T00:19:19Z</time>
      </trkpt>
      <trkpt lat="43.47142000" lon="11.03318000">
        <ele>269.00000</ele>
        <time>2010-01-01T00:19:32Z</time>
      </trkpt>
      <trkpt lat="43.47169400" lon="11.03274100">
        <ele>266.00000</ele>
        <time>2010-01-01T00:19:49Z</time>
      </trkpt>
      <trkpt lat="43.47219000" lon="11.03239000">
        <ele>260.00000</ele>
        <time>2010-01-01T00:20:11Z</time>
      </trkpt>
      <trkpt lat="43.47440000" lon="11.03104000">
        <ele>266.00000</ele>
        <time>2010-01-01T00:21:48Z</time>
      </trkpt>
      <trkpt lat="43.47628000" lon="11.02948000">
        <ele>263.00000</ele>
        <time>2010-01-01T00:23:16Z</time>
      </trkpt>
      <trkpt lat="43.47666130" lon="11.02940440">
        <ele>265.00000</ele>
        <time>2010-01-01T00:23:31Z</time>
      </trkpt>
      <trkpt lat="43.47676250" lon="11.02909320">
        <ele>266.00000</ele>
        <time>2010-01-01T00:23:41Z</time>
      </trkpt>
      <trkpt lat="43.47657560" lon="11.02862110">
        <ele>264.00000</ele>
        <time>2010-01-01T00:23:57Z</time>
      </trkpt>
      <trkpt lat="43.47695000" lon="11.02572000">
        <ele>285.00000</ele>
        <time>2010-01-01T00:25:22Z</time>
      </trkpt>
      <trkpt lat="43.47777000" lon="11.02338000">
        <ele>286.00000</ele>
        <time>2010-01-01T00:26:38Z</time>
      </trkpt>
      <trkpt lat="43.47788000" lon="11.02293000">
        <ele>287.00000</ele>
        <time>2010-01-01T00:26:52Z</time>
      </trkpt>
      <trkpt lat="43.47799000" lon="11.02183000">
        <ele>295.00000</ele>
        <time>2010-01-01T00:27:24Z</time>
      </trkpt>
      <trkpt lat="43.47797000" lon="11.02037000">
        <ele>302.00000</ele>
        <time>2010-01-01T00:28:06Z</time>
      </trkpt>
      <trkpt lat="43.47806000" lon="11.01977000">
        <ele>304.00000</ele>
        <time>2010-01-01T00:28:24Z</time>
      </trkpt>
      <trkpt lat="43.47866000" lon="11.01826000">
        <ele>305.00000</ele>
        <time>2010-01-01T00:29:14Z</time>
      </trkpt>
      <trkpt lat="43.47886000" lon="11.01791000">
        <ele>306.00000</ele>
        <time>2010-01-01T00:29:27Z</time>
      </trkpt>
      <trkpt lat="43.47981000" lon="11.01665000">
        <ele>308.00000</ele>
        <time>2010-01-01T00:30:20Z</time>
      </trkpt>
      <trkpt lat="43.48050720" lon="11.01534960">
        <ele>318.00000</ele>
        <time>2010-01-01T00:31:07Z</time>
      </trkpt>
      <trkpt lat="43.48040600" lon="11.01328960">
        <ele>330.00000</ele>
        <time>2010-01-01T00:32:07Z</time>
      </trkpt>
      <trkpt lat="43.48135570" lon="11.00974910">
        <ele>352.00000</ele>
        <time>2010-01-01T00:33:57Z</time>
      </trkpt>
      <trkpt lat="43.48153480" lon="11.00928780">
        <ele>352.00000</ele>
        <time>2010-01-01T00:34:12Z</time>
      </trkpt>
      <trkpt lat="43.48228990" lon="11.00797890">
        <ele>354.00000</ele>
        <time>2010-01-01T00:35:00Z</time>
      </trkpt>
      <trkpt lat="43.48291270" lon="11.00726000">
        <ele>358.00000</ele>
        <time>2010-01-01T00:35:33Z</time>
      </trkpt>
      <trkpt lat="43.48361330" lon="11.00435250">
        <ele>364.00000</ele>
        <time>2010-01-01T00:37:02Z</time>
      </trkpt>
      <trkpt lat="43.48492880" lon="11.00104800">
        <ele>375.00000</ele>
        <time>2010-01-01T00:38:51Z</time>
      </trkpt>
      <trkpt lat="43.48580070" lon="10.99972840">
        <ele>373.00000</ele>
        <time>2010-01-01T00:39:43Z</time>
      </trkpt>
      <trkpt lat="43.48664140" lon="10.99821560">
        <ele>383.00000</ele>
        <time>2010-01-01T00:40:38Z</time>
      </trkpt>
      <trkpt lat="43.48686710" lon="10.99741100">
        <ele>390.00000</ele>
        <time>2010-01-01T00:41:04Z</time>
      </trkpt>
      <trkpt lat="43.48690600" lon="10.99663850">
        <ele>398.00000</ele>
        <time>2010-01-01T00:41:26Z</time>
      </trkpt>
      <trkpt lat="43.48655580" lon="10.99487900">
        <ele>403.00000</ele>
        <time>2010-01-01T00:42:19Z</time>
      </trkpt>
      <trkpt lat="43.48665690" lon="10.99318380">
        <ele>410.00000</ele>
        <time>2010-01-01T00:43:08Z</time>
      </trkpt>
      <trkpt lat="43.48707730" lon="10.99074840">
        <ele>419.00000</ele>
        <time>2010-01-01T00:44:21Z</time>
      </trkpt>
      <trkpt lat="43.48801920" lon="10.98769060">
        <ele>442.00000</ele>
        <time>2010-01-01T00:45:58Z</time>
      </trkpt>
      <trkpt lat="43.48794910" lon="10.98609200">
        <ele>450.00000</ele>
        <time>2010-01-01T00:46:44Z</time>
      </trkpt>
      <trkpt lat="43.48699950" lon="10.98365660">
        <ele>461.00000</ele>
        <time>2010-01-01T00:48:04Z</time>
      </trkpt>
      <trkpt lat="43.48699950" lon="10.98206870">
        <ele>459.00000</ele>
        <time>2010-01-01T00:48:51Z</time>
      </trkpt>
      <trkpt lat="43.48662580" lon="10.98026630">
        <ele>452.00000</ele>
        <time>2010-01-01T00:49:45Z</time>
      </trkpt>
      <trkpt lat="43.48721740" lon="10.97842090">
        <ele>445.00000</ele>
        <time>2010-01-01T00:50:44Z</time>
      </trkpt>
      <trkpt lat="43.48653240" lon="10.97679010">
        <ele>446.00000</ele>
        <time>2010-01-01T00:51:38Z</time>
      </trkpt>
      <trkpt lat="43.48618210" lon="10.97520230">
        <ele>436.00000</ele>
        <time>2010-01-01T00:52:26Z</time>
      </trkpt>
      <trkpt lat="43.48635340" lon="10.97337840">
        <ele>421.00000</ele>
        <time>2010-01-01T00:53:20Z</time>
      </trkpt>
      <trkpt lat="43.48486660" lon="10.96827140">
        <ele>424.00000</ele>
        <time>2010-01-01T00:56:00Z</time>
      </trkpt>
      <trkpt lat="43.48481210" lon="10.96760630">
        <ele>426.00000</ele>
        <time>2010-01-01T00:56:19Z</time>
      </trkpt>
      <trkpt lat="43.48505340" lon="10.96627590">
        <ele>430.00000</ele>
        <time>2010-01-01T00:56:59Z</time>
      </trkpt>
      <trkpt lat="43.48498330" lon="10.96564290">
        <ele>436.00000</ele>
        <time>2010-01-01T00:57:18Z</time>
      </trkpt>
      <trkpt lat="43.48378450" lon="10.96326110">
        <ele>445.00000</ele>
        <time>2010-01-01T00:58:42Z</time>
      </trkpt>
      <trkpt lat="43.48158150" lon="10.96063250">
        <ele>456.00000</ele>
        <time>2010-01-01T01:00:38Z</time>
      </trkpt>
      <trkpt lat="43.48129340" lon="10.95995660">
        <ele>454.00000</ele>
        <time>2010-01-01T01:01:01Z</time>
      </trkpt>
      <trkpt lat="43.48104430" lon="10.95902320">
        <ele>454.00000</ele>
        <time>2010-01-01T01:01:30Z</time>
      </trkpt>
      <trkpt lat="43.48064730" lon="10.95644830">
        <ele>462.00000</ele>
        <time>2010-01-01T01:02:47Z</time>
      </trkpt>
      <trkpt lat="43.48063950" lon="10.95522520">
        <ele>468.00000</ele>
        <time>2010-01-01T01:03:22Z</time>
      </trkpt>
      <trkpt lat="43.48074070" lon="10.95374460">
        <ele>468.00000</ele>
        <time>2010-01-01T01:04:05Z</time>
      </trkpt>
      <trkpt lat="43.48170600" lon="10.95269320">
        <ele>467.00000</ele>
        <time>2010-01-01T01:04:55Z</time>
      </trkpt>
      <trkpt lat="43.48197850" lon="10.95260730">
        <ele>467.00000</ele>
        <time>2010-01-01T01:05:06Z</time>
      </trkpt>
      <trkpt lat="43.48248450" lon="10.95289700">
        <ele>471.00000</ele>
        <time>2010-01-01T01:05:28Z</time>
      </trkpt>
      <trkpt lat="43.48417380" lon="10.95278970">
        <ele>467.00000</ele>
        <time>2010-01-01T01:06:35Z</time>
      </trkpt>
      <trkpt lat="43.48439170" lon="10.95265030">
        <ele>465.00000</ele>
        <time>2010-01-01T01:06:45Z</time>
      </trkpt>
      <trkpt lat="43.48486660" lon="10.95152370">
        <ele>467.00000</ele>
        <time>2010-01-01T01:07:23Z</time>
      </trkpt>
      <trkpt lat="43.48485100" lon="10.95054740">
        <ele>455.00000</ele>
        <time>2010-01-01T01:07:51Z</time>
      </trkpt>
      <trkpt lat="43.48530250" lon="10.95012900">
        <ele>451.00000</ele>
        <time>2010-01-01T01:08:13Z</time>
      </trkpt>
      <trkpt lat="43.48538030" lon="10.94936720">
        <ele>445.00000</ele>
        <time>2010-01-01T01:08:35Z</time>
      </trkpt>
      <trkpt lat="43.48536480" lon="10.94880930">
        <ele>443.00000</ele>
        <time>2010-01-01T01:08:51Z</time>
      </trkpt>
      <trkpt lat="43.48594080" lon="10.94627730">
        <ele>444.00000</ele>
        <time>2010-01-01T01:10:09Z</time>
      </trkpt>
      <trkpt lat="43.48661800" lon="10.94520440">
        <ele>444.00000</ele>
        <time>2010-01-01T01:10:50Z</time>
      </trkpt>
      <trkpt lat="43.48701500" lon="10.94367020">
        <ele>452.00000</ele>
        <time>2010-01-01T01:11:37Z</time>
      </trkpt>
      <trkpt lat="43.48732640" lon="10.94303720">
        <ele>452.00000</ele>
        <time>2010-01-01T01:11:59Z</time>
      </trkpt>
      <trkpt lat="43.48792580" lon="10.94244710">
        <ele>456.00000</ele>
        <time>2010-01-01T01:12:29Z</time>
      </trkpt>
      <trkpt lat="43.48827600" lon="10.94100950">
        <ele>451.00000</ele>
        <time>2010-01-01T01:13:13Z</time>
      </trkpt>
      <trkpt lat="43.48882090" lon="10.94066610">
        <ele>452.00000</ele>
        <time>2010-01-01T01:13:37Z</time>
      </trkpt>
      <trkpt lat="43.48934240" lon="10.94010820">
        <ele>454.00000</ele>
        <time>2010-01-01T01:14:03Z</time>
      </trkpt>
      <trkpt lat="43.48947470" lon="10.93940010">
        <ele>452.00000</ele>
        <time>2010-01-01T01:14:25Z</time>
      </trkpt>
      <trkpt lat="43.49010520" lon="10.93290920">
        <ele>459.00000</ele>
        <time>2010-01-01T01:17:35Z</time>
      </trkpt>
      <trkpt lat="43.48999630" lon="10.93246930">
        <ele>459.00000</ele>
        <time>2010-01-01T01:17:48Z</time>
      </trkpt>
      <trkpt lat="43.49008970" lon="10.93231910">
        <ele>460.00000</ele>
        <time>2010-01-01T01:17:54Z</time>
      </trkpt>
      <trkpt lat="43.49010520" lon="10.93113890">
        <ele>466.00000</ele>
        <time>2010-01-01T01:18:28Z</time>
      </trkpt>
      <trkpt lat="43.49033100" lon="10.93030210">
        <ele>468.00000</ele>
        <time>2010-01-01T01:18:54Z</time>
      </trkpt>
      <trkpt lat="43.49100030" lon="10.92875710">
        <ele>478.00000</ele>
        <time>2010-01-01T01:19:46Z</time>
      </trkpt>
      <trkpt lat="43.49137400" lon="10.92843530">
        <ele>478.00000</ele>
        <time>2010-01-01T01:20:04Z</time>
      </trkpt>
      <trkpt lat="43.49200440" lon="10.92881080">
        <ele>484.00000</ele>
        <time>2010-01-01T01:20:32Z</time>
      </trkpt>
      <trkpt lat="43.49244810" lon="10.92871420">
        <ele>486.00000</ele>
        <time>2010-01-01T01:20:50Z</time>
      </trkpt>
      <trkpt lat="43.49395020" lon="10.92665430">
        <ele>500.00000</ele>
        <time>2010-01-01T01:22:14Z</time>
      </trkpt>
      <trkpt lat="43.49495430" lon="10.92599980">
        <ele>503.00000</ele>
        <time>2010-01-01T01:22:59Z</time>
      </trkpt>
      <trkpt lat="43.49543680" lon="10.92613930">
        <ele>504.00000</ele>
        <time>2010-01-01T01:23:19Z</time>
      </trkpt>
      <trkpt lat="43.49597380" lon="10.92607490">
        <ele>507.00000</ele>
        <time>2010-01-01T01:23:40Z</time>
      </trkpt>
      <trkpt lat="43.49659650" lon="10.92697620">
        <ele>513.00000</ele>
        <time>2010-01-01T01:24:16Z</time>
      </trkpt>
      <trkpt lat="43.49816080" lon="10.92729800">
        <ele>516.00000</ele>
        <time>2010-01-01T01:25:20Z</time>
      </trkpt>
      <trkpt lat="43.49929710" lon="10.92765210">
        <ele>515.00000</ele>
        <time>2010-01-01T01:26:06Z</time>
      </trkpt>
      <trkpt lat="43.50064340" lon="10.92798470">
        <ele>510.00000</ele>
        <time>2010-01-01T01:27:01Z</time>
      </trkpt>
      <trkpt lat="43.50469010" lon="10.92958330">
        <ele>519.00000</ele>
        <time>2010-01-01T01:29:50Z</time>
      </trkpt>
      <trkpt lat="43.50631650" lon="10.92966910">
        <ele>505.00000</ele>
        <time>2010-01-01T01:30:55Z</time>
      </trkpt>
      <trkpt lat="43.50676780" lon="10.92889660">
        <ele>500.00000</ele>
        <time>2010-01-01T01:31:23Z</time>
      </trkpt>
      <trkpt lat="43.50741370" lon="10.92866060">
        <ele>497.00000</ele>
        <time>2010-01-01T01:31:50Z</time>
      </trkpt>
      <trkpt lat="43.50922670" lon="10.92861770">
        <ele>489.00000</ele>
        <time>2010-01-01T01:33:03Z</time>
      </trkpt>
      <trkpt lat="43.51031610" lon="10.92905750">
        <ele>493.00000</ele>
        <time>2010-01-01T01:33:48Z</time>
      </trkpt>
      <trkpt lat="43.51158440" lon="10.92994800">
        <ele>486.00000</ele>
        <time>2010-01-01T01:34:45Z</time>
      </trkpt>
      <trkpt lat="43.51270490" lon="10.93026990">
        <ele>482.00000</ele>
        <time>2010-01-01T01:35:31Z</time>
      </trkpt>
      <trkpt lat="43.51321840" lon="10.93010900">
        <ele>481.00000</ele>
        <time>2010-01-01T01:35:52Z</time>
      </trkpt>
      <trkpt lat="43.51348290" lon="10.92962620">
        <ele>481.00000</ele>
        <time>2010-01-01T01:36:10Z</time>
      </trkpt>
      <trkpt lat="43.51387970" lon="10.92895030">
        <ele>474.00000</ele>
        <time>2010-01-01T01:36:35Z</time>
      </trkpt>
      <trkpt lat="43.51427660" lon="10.92864990">
        <ele>472.00000</ele>
        <time>2010-01-01T01:36:53Z</time>
      </trkpt>
      <trkpt lat="43.51495350" lon="10.92847820">
        <ele>464.00000</ele>
        <time>2010-01-01T01:37:21Z</time>
      </trkpt>
      <trkpt lat="43.51560700" lon="10.92787740">
        <ele>458.00000</ele>
        <time>2010-01-01T01:37:52Z</time>
      </trkpt>
      <trkpt lat="43.51626060" lon="10.92690110">
        <ele>445.00000</ele>
        <time>2010-01-01T01:38:31Z</time>
      </trkpt>
      <trkpt lat="43.51941930" lon="10.92715850">
        <ele>441.00000</ele>
        <time>2010-01-01T01:40:37Z</time>
      </trkpt>
      <trkpt lat="43.52222780" lon="10.92794170">
        <ele>434.00000</ele>
        <time>2010-01-01T01:42:32Z</time>
      </trkpt>
      <trkpt lat="43.52339470" lon="10.92856400">
        <ele>432.00000</ele>
        <time>2010-01-01T01:43:22Z</time>
      </trkpt>
      <trkpt lat="43.52482610" lon="10.92889660">
        <ele>423.00000</ele>
        <time>2010-01-01T01:44:20Z</time>
      </trkpt>
      <trkpt lat="43.52535510" lon="10.92889660">
        <ele>426.00000</ele>
        <time>2010-01-01T01:44:41Z</time>
      </trkpt>
      <trkpt lat="43.52747880" lon="10.92859620">
        <ele>437.00000</ele>
        <time>2010-01-01T01:46:07Z</time>
      </trkpt>
      <trkpt lat="43.52845110" lon="10.92855330">
        <ele>437.00000</ele>
        <time>2010-01-01T01:46:46Z</time>
      </trkpt>
      <trkpt lat="43.52899560" lon="10.92871420">
        <ele>435.00000</ele>
        <time>2010-01-01T01:47:08Z</time>
      </trkpt>
      <trkpt lat="43.52975010" lon="10.92933650">
        <ele>436.00000</ele>
        <time>2010-01-01T01:47:43Z</time>
      </trkpt>
      <trkpt lat="43.53027910" lon="10.93073120">
        <ele>430.00000</ele>
        <time>2010-01-01T01:48:29Z</time>
      </trkpt>
      <trkpt lat="43.53068360" lon="10.93219040">
        <ele>423.00000</ele>
        <time>2010-01-01T01:49:14Z</time>
      </trkpt>
      <trkpt lat="43.53132140" lon="10.93650340">
        <ele>412.00000</ele>
        <time>2010-01-01T01:51:22Z</time>
      </trkpt>
      <trkpt lat="43.53247260" lon="10.93912120">
        <ele>410.00000</ele>
        <time>2010-01-01T01:52:51Z</time>
      </trkpt>
      <trkpt lat="43.53281480" lon="10.94289770">
        <ele>408.00000</ele>
        <time>2010-01-01T01:54:41Z</time>
      </trkpt>
      <trkpt lat="43.53282260" lon="10.94565510">
        <ele>406.00000</ele>
        <time>2010-01-01T01:56:01Z</time>
      </trkpt>
      <trkpt lat="43.53334370" lon="10.94720000">
        <ele>399.00000</ele>
        <time>2010-01-01T01:56:51Z</time>
      </trkpt>
      <trkpt lat="43.53339040" lon="10.94754870">
        <ele>398.00000</ele>
        <time>2010-01-01T01:57:01Z</time>
      </trkpt>
      <trkpt lat="43.53337490" lon="10.94812270">
        <ele>397.00000</ele>
        <time>2010-01-01T01:57:18Z</time>
      </trkpt>
      <trkpt lat="43.53346040" lon="10.94836950">
        <ele>395.00000</ele>
        <time>2010-01-01T01:57:26Z</time>
      </trkpt>
      <trkpt lat="43.53365100" lon="10.94868060">
        <ele>394.00000</ele>
        <time>2010-01-01T01:57:37Z</time>
      </trkpt>
      <trkpt lat="43.53419160" lon="10.94922240">
        <ele>388.00000</ele>
        <time>2010-01-01T01:58:04Z</time>
      </trkpt>
      <trkpt lat="43.53411380" lon="10.95024700">
        <ele>382.00000</ele>
        <time>2010-01-01T01:58:34Z</time>
      </trkpt>
      <trkpt lat="43.53430430" lon="10.95047770">
        <ele>380.00000</ele>
        <time>2010-01-01T01:58:44Z</time>
      </trkpt>
      <trkpt lat="43.53462710" lon="10.95070830">
        <ele>377.00000</ele>
        <time>2010-01-01T01:58:59Z</time>
      </trkpt>
      <trkpt lat="43.53473600" lon="10.95144860">
        <ele>371.00000</ele>
        <time>2010-01-01T01:59:21Z</time>
      </trkpt>
      <trkpt lat="43.53487600" lon="10.95156660">
        <ele>368.00000</ele>
        <time>2010-01-01T01:59:27Z</time>
      </trkpt>
      <trkpt lat="43.53504710" lon="10.95158810">
        <ele>366.00000</ele>
        <time>2010-01-01T01:59:34Z</time>
      </trkpt>
      <trkpt lat="43.53548660" lon="10.95115900">
        <ele>363.00000</ele>
        <time>2010-01-01T01:59:56Z</time>
      </trkpt>
      <trkpt lat="43.53570050" lon="10.95107310">
        <ele>361.00000</ele>
        <time>2010-01-01T02:00:05Z</time>
      </trkpt>
      <trkpt lat="43.53685160" lon="10.95135210">
        <ele>353.00000</ele>
        <time>2010-01-01T02:00:51Z</time>
      </trkpt>
      <trkpt lat="43.53901370" lon="10.95364800">
        <ele>328.00000</ele>
        <time>2010-01-01T02:02:41Z</time>
      </trkpt>
      <trkpt lat="43.53927430" lon="10.95430790">
        <ele>328.00000</ele>
        <time>2010-01-01T02:03:02Z</time>
      </trkpt>
      <trkpt lat="43.53963980" lon="10.95430250">
        <ele>328.00000</ele>
        <time>2010-01-01T02:03:17Z</time>
      </trkpt>
      <trkpt lat="43.53994700" lon="10.95466730">
        <ele>328.00000</ele>
        <time>2010-01-01T02:03:33Z</time>
      </trkpt>
      <trkpt lat="43.54089580" lon="10.95474770">
        <ele>314.00000</ele>
        <time>2010-01-01T02:04:11Z</time>
      </trkpt>
      <trkpt lat="43.54101250" lon="10.95495700">
        <ele>313.00000</ele>
        <time>2010-01-01T02:04:19Z</time>
      </trkpt>
      <trkpt lat="43.54110580" lon="10.95541830">
        <ele>311.00000</ele>
        <time>2010-01-01T02:04:33Z</time>
      </trkpt>
      <trkpt lat="43.54124000" lon="10.95551000">
        <ele>308.00000</ele>
        <time>2010-01-01T02:04:39Z</time>
      </trkpt>
      <trkpt lat="43.54172000" lon="10.95540000">
        <ele>302.00000</ele>
        <time>2010-01-01T02:04:58Z</time>
      </trkpt>
      <trkpt lat="43.54243960" lon="10.95518760">
        <ele>295.00000</ele>
        <time>2010-01-01T02:05:28Z</time>
      </trkpt>
      <trkpt lat="43.54318000" lon="10.95568000">
        <ele>284.00000</ele>
        <time>2010-01-01T02:06:01Z</time>
      </trkpt>
      <trkpt lat="43.54421000" lon="10.95655000">
        <ele>273.00000</ele>
        <time>2010-01-01T02:06:49Z</time>
      </trkpt>
      <trkpt lat="43.54469000" lon="10.95689000">
        <ele>266.00000</ele>
        <time>2010-01-01T02:07:11Z</time>
      </trkpt>
      <trkpt lat="43.54518000" lon="10.95717000">
        <ele>264.00000</ele>
        <time>2010-01-01T02:07:32Z</time>
      </trkpt>
      <trkpt lat="43.54586000" lon="10.95748000">
        <ele>262.00000</ele>
        <time>2010-01-01T02:08:01Z</time>
      </trkpt>
      <trkpt lat="43.54634000" lon="10.95758000">
        <ele>262.00000</ele>
        <time>2010-01-01T02:08:20Z</time>
      </trkpt>
      <trkpt lat="43.54663000" lon="10.95756000">
        <ele>265.00000</ele>
        <time>2010-01-01T02:08:32Z</time>
      </trkpt>
      <trkpt lat="43.54772000" lon="10.95700000">
        <ele>257.00000</ele>
        <time>2010-01-01T02:09:18Z</time>
      </trkpt>
      <trkpt lat="43.54800000" lon="10.95695000">
        <ele>255.00000</ele>
        <time>2010-01-01T02:09:30Z</time>
      </trkpt>
      <trkpt lat="43.54827000" lon="10.95707000">
        <ele>254.00000</ele>
        <time>2010-01-01T02:09:41Z</time>
      </trkpt>
      <trkpt lat="43.54876000" lon="10.95757000">
        <ele>252.00000</ele>
        <time>2010-01-01T02:10:05Z</time>
      </trkpt>
      <trkpt lat="43.54901000" lon="10.95768000">
        <ele>252.00000</ele>
        <time>2010-01-01T02:10:16Z</time>
      </trkpt>
      <trkpt lat="43.54922000" lon="10.95742000">
        <ele>248.00000</ele>
        <time>2010-01-01T02:10:27Z</time>
      </trkpt>
      <trkpt lat="43.55022000" lon="10.95525000">
        <ele>236.00000</ele>
        <time>2010-01-01T02:11:42Z</time>
      </trkpt>
      <trkpt lat="43.55059000" lon="10.95482000">
        <ele>233.00000</ele>
        <time>2010-01-01T02:12:01Z</time>
      </trkpt>
      <trkpt lat="43.55118000" lon="10.95443000">
        <ele>232.00000</ele>
        <time>2010-01-01T02:12:27Z</time>
      </trkpt>
      <trkpt lat="43.55145000" lon="10.95421000">
        <ele>232.00000</ele>
        <time>2010-01-01T02:12:40Z</time>
      </trkpt>
      <trkpt lat="43.55219000" lon="10.95342000">
        <ele>231.00000</ele>
        <time>2010-01-01T02:13:17Z</time>
      </trkpt>
      <trkpt lat="43.55249000" lon="10.95326000">
        <ele>229.00000</ele>
        <time>2010-01-01T02:13:30Z</time>
      </trkpt>
      <trkpt lat="43.55298000" lon="10.95309000">
        <ele>227.00000</ele>
        <time>2010-01-01T02:13:50Z</time>
      </trkpt>
      <trkpt lat="43.55382000" lon="10.95286000">
        <ele>222.00000</ele>
        <time>2010-01-01T02:14:25Z</time>
      </trkpt>
      <trkpt lat="43.55461000" lon="10.95269000">
        <ele>221.00000</ele>
        <time>2010-01-01T02:14:57Z</time>
      </trkpt>
      <trkpt lat="43.55512000" lon="10.95242000">
        <ele>214.00000</ele>
        <time>2010-01-01T02:15:19Z</time>
      </trkpt>
      <trkpt lat="43.55560000" lon="10.95210000">
        <ele>206.00000</ele>
        <time>2010-01-01T02:15:40Z</time>
      </trkpt>
      <trkpt lat="43.55657000" lon="10.95172000">
        <ele>196.00000</ele>
        <time>2010-01-01T02:16:20Z</time>
      </trkpt>
      <trkpt lat="43.55749000" lon="10.95142000">
        <ele>195.00000</ele>
        <time>2010-01-01T02:16:58Z</time>
      </trkpt>
      <trkpt lat="43.55775000" lon="10.95129000">
        <ele>192.00000</ele>
        <time>2010-01-01T02:17:09Z</time>
      </trkpt>
      <trkpt lat="43.55814000" lon="10.95102000">
        <ele>194.00000</ele>
        <time>2010-01-01T02:17:27Z</time>
      </trkpt>
      <trkpt lat="43.55841000" lon="10.95094000">
        <ele>195.00000</ele>
        <time>2010-01-01T02:17:38Z</time>
      </trkpt>
      <trkpt lat="43.55870000" lon="10.95092000">
        <ele>195.00000</ele>
        <time>2010-01-01T02:17:49Z</time>
      </trkpt>
      <trkpt lat="43.55994000" lon="10.95106000">
        <ele>193.00000</ele>
        <time>2010-01-01T02:18:39Z</time>
      </trkpt>
      <trkpt lat="43.56026950" lon="10.95106780">
        <ele>191.00000</ele>
        <time>2010-01-01T02:18:52Z</time>
      </trkpt>
      <trkpt lat="43.56154000" lon="10.95102000">
        <ele>188.00000</ele>
        <time>2010-01-01T02:19:43Z</time>
      </trkpt>
      <trkpt lat="43.56185000" lon="10.95113000">
        <ele>186.00000</ele>
        <time>2010-01-01T02:19:56Z</time>
      </trkpt>
      <trkpt lat="43.56199000" lon="10.95128000">
        <ele>184.00000</ele>
        <time>2010-01-01T02:20:03Z</time>
      </trkpt>
      <trkpt lat="43.56252000" lon="10.95210000">
        <ele>177.00000</ele>
        <time>2010-01-01T02:20:35Z</time>
      </trkpt>
      <trkpt lat="43.56282000" lon="10.95265000">
        <ele>173.00000</ele>
        <time>2010-01-01T02:20:55Z</time>
      </trkpt>
      <trkpt lat="43.56367000" lon="10.95519000">
        <ele>170.00000</ele>
        <time>2010-01-01T02:22:16Z</time>
      </trkpt>
      <trkpt lat="43.56399000" lon="10.95586000">
        <ele>168.00000</ele>
        <time>2010-01-01T02:22:39Z</time>
      </trkpt>
      <trkpt lat="43.56430000" lon="10.95629000">
        <ele>167.00000</ele>
        <time>2010-01-01T02:22:57Z</time>
      </trkpt>
      <trkpt lat="43.56462000" lon="10.95682000">
        <ele>163.00000</ele>
        <time>2010-01-01T02:23:17Z</time>
      </trkpt>
      <trkpt lat="43.56524000" lon="10.95792000">
        <ele>156.00000</ele>
        <time>2010-01-01T02:23:57Z</time>
      </trkpt>
      <trkpt lat="43.56544000" lon="10.95818000">
        <ele>155.00000</ele>
        <time>2010-01-01T02:24:08Z</time>
      </trkpt>
      <trkpt lat="43.56627000" lon="10.95905000">
        <ele>147.00000</ele>
        <time>2010-01-01T02:24:50Z</time>
      </trkpt>
      <trkpt lat="43.56679000" lon="10.95983000">
        <ele>143.00000</ele>
        <time>2010-01-01T02:25:21Z</time>
      </trkpt>
      <trkpt lat="43.56707970" lon="10.96017650">
        <ele>142.00000</ele>
        <time>2010-01-01T02:25:36Z</time>
      </trkpt>
      <trkpt lat="43.56778000" lon="10.96053000">
        <ele>145.00000</ele>
        <time>2010-01-01T02:26:06Z</time>
      </trkpt>
      <trkpt lat="43.56834000" lon="10.96092000">
        <ele>146.00000</ele>
        <time>2010-01-01T02:26:31Z</time>
      </trkpt>
      <trkpt lat="43.56939000" lon="10.96191000">
        <ele>135.00000</ele>
        <time>2010-01-01T02:27:22Z</time>
      </trkpt>
      <trkpt lat="43.56960000" lon="10.96236000">
        <ele>136.00000</ele>
        <time>2010-01-01T02:27:38Z</time>
      </trkpt>
      <trkpt lat="43.56988000" lon="10.96322000">
        <ele>135.00000</ele>
        <time>2010-01-01T02:28:05Z</time>
      </trkpt>
      <trkpt lat="43.57008000" lon="10.96347000">
        <ele>133.00000</ele>
        <time>2010-01-01T02:28:16Z</time>
      </trkpt>
      <trkpt lat="43.57035000" lon="10.96352000">
        <ele>131.00000</ele>
        <time>2010-01-01T02:28:27Z</time>
      </trkpt>
      <trkpt lat="43.57064000" lon="10.96338000">
        <ele>132.00000</ele>
        <time>2010-01-01T02:28:39Z</time>
      </trkpt>
      <trkpt lat="43.57092000" lon="10.96313000">
        <ele>132.00000</ele>
        <time>2010-01-01T02:28:52Z</time>
      </trkpt>
      <trkpt lat="43.57162330" lon="10.96267640">
        <ele>123.00000</ele>
        <time>2010-01-01T02:29:23Z</time>
      </trkpt>
      <trkpt lat="43.57240000" lon="10.96255000">
        <ele>119.00000</ele>
        <time>2010-01-01T02:29:55Z</time>
      </trkpt>
      <trkpt lat="43.57283000" lon="10.96262000">
        <ele>111.00000</ele>
        <time>2010-01-01T02:30:12Z</time>
      </trkpt>
      <trkpt lat="43.57469000" lon="10.96306000">
        <ele>90.000000</ele>
        <time>2010-01-01T02:31:27Z</time>
      </trkpt>
      <trkpt lat="43.57682000" lon="10.96358000">
        <ele>72.000000</ele>
        <time>2010-01-01T02:32:54Z</time>
      </trkpt>
      <trkpt lat="43.57822000" lon="10.96390000">
        <ele>63.000000</ele>
        <time>2010-01-01T02:33:51Z</time>
      </trkpt>
      <trkpt lat="43.57944000" lon="10.96437000">
        <ele>63.000000</ele>
        <time>2010-01-01T02:34:42Z</time>
      </trkpt>
      <trkpt lat="43.58210000" lon="10.96539000">
        <ele>60.000000</ele>
        <time>2010-01-01T02:36:32Z</time>
      </trkpt>
      <trkpt lat="43.58352000" lon="10.96593000">
        <ele>60.000000</ele>
        <time>2010-01-01T02:37:31Z</time>
      </trkpt>
      <trkpt lat="43.58399000" lon="10.96618000">
        <ele>59.000000</ele>
        <time>2010-01-01T02:37:51Z</time>
      </trkpt>
      <trkpt lat="43.58413000" lon="10.96616000">
        <ele>59.000000</ele>
        <time>2010-01-01T02:37:57Z</time>
      </trkpt>
      <trkpt lat="43.58552000" lon="10.96667000">
        <ele>57.000000</ele>
        <time>2010-01-01T02:38:54Z</time>
      </trkpt>
      <trkpt lat="43.58600000" lon="10.96691000">
        <ele>56.000000</ele>
        <time>2010-01-01T02:39:15Z</time>
      </trkpt>
      <trkpt lat="43.58760000" lon="10.96794000">
        <ele>56.000000</ele>
        <time>2010-01-01T02:40:26Z</time>
      </trkpt>
      <trkpt lat="43.58832170" lon="10.96840560">
        <ele>58.000000</ele>
        <time>2010-01-01T02:40:57Z</time>
      </trkpt>
      <trkpt lat="43.58862000" lon="10.96843000">
        <ele>56.000000</ele>
        <time>2010-01-01T02:41:09Z</time>
      </trkpt>
      <trkpt lat="43.58883840" lon="10.96837870">
        <ele>55.000000</ele>
        <time>2010-01-01T02:41:18Z</time>
      </trkpt>
      <trkpt lat="43.58979000" lon="10.96803000">
        <ele>57.000000</ele>
        <time>2010-01-01T02:41:58Z</time>
      </trkpt>
      <trkpt lat="43.59062000" lon="10.96768000">
        <ele>55.000000</ele>
        <time>2010-01-01T02:42:32Z</time>
      </trkpt>
      <trkpt lat="43.59192000" lon="10.96689000">
        <ele>52.000000</ele>
        <time>2010-01-01T02:43:29Z</time>
      </trkpt>
      <trkpt lat="43.59248000" lon="10.96659000">
        <ele>52.000000</ele>
        <time>2010-01-01T02:43:53Z</time>
      </trkpt>
      <trkpt lat="43.59365000" lon="10.96655000">
        <ele>50.000000</ele>
        <time>2010-01-01T02:44:40Z</time>
      </trkpt>
      <trkpt lat="43.59378060" lon="10.96665140">
        <ele>51.000000</ele>
        <time>2010-01-01T02:44:46Z</time>
      </trkpt>
      <trkpt lat="43.59387000" lon="10.96675000">
        <ele>52.000000</ele>
        <time>2010-01-01T02:44:51Z</time>
      </trkpt>
      <trkpt lat="43.59397000" lon="10.96674000">
        <ele>52.000000</ele>
        <time>2010-01-01T02:44:55Z</time>
      </trkpt>
      <trkpt lat="43.59414000" lon="10.96655000">
        <ele>53.000000</ele>
        <time>2010-01-01T02:45:04Z</time>
      </trkpt>
      <trkpt lat="43.59552890" lon="10.96654410">
        <ele>51.000000</ele>
        <time>2010-01-01T02:45:59Z</time>
      </trkpt>
      <trkpt lat="43.59760000" lon="10.96656000">
        <ele>53.000000</ele>
        <time>2010-01-01T02:47:22Z</time>
      </trkpt>
      <trkpt lat="43.59864000" lon="10.96657000">
        <ele>52.000000</ele>
        <time>2010-01-01T02:48:04Z</time>
      </trkpt>
      <trkpt lat="43.60025000" lon="10.96657000">
        <ele>52.000000</ele>
        <time>2010-01-01T02:49:08Z</time>
      </trkpt>
      <trkpt lat="43.60061000" lon="10.96657000">
        <ele>53.000000</ele>
        <time>2010-01-01T02:49:23Z</time>
      </trkpt>
      <trkpt lat="43.60110000" lon="10.96662000">
        <ele>52.000000</ele>
        <time>2010-01-01T02:49:42Z</time>
      </trkpt>
      <trkpt lat="43.60136000" lon="10.96677000">
        <ele>53.000000</ele>
        <time>2010-01-01T02:49:53Z</time>
      </trkpt>
      <trkpt lat="43.60163580" lon="10.96688210">
        <ele>54.000000</ele>
        <time>2010-01-01T02:50:05Z</time>
      </trkpt>
      <trkpt lat="43.60180000" lon="10.96687000">
        <ele>54.000000</ele>
        <time>2010-01-01T02:50:12Z</time>
      </trkpt>
      <trkpt lat="43.60233000" lon="10.96713000">
        <ele>53.000000</ele>
        <time>2010-01-01T02:50:34Z</time>
      </trkpt>
      <trkpt lat="43.60301000" lon="10.96750000">
        <ele>53.000000</ele>
        <time>2010-01-01T02:51:03Z</time>
      </trkpt>
      <trkpt lat="43.60344610" lon="10.96778330">
        <ele>52.000000</ele>
        <time>2010-01-01T02:51:23Z</time>
      </trkpt>
      <trkpt lat="43.60360000" lon="10.96784000">
        <ele>51.000000</ele>
        <time>2010-01-01T02:51:29Z</time>
      </trkpt>
      <trkpt lat="43.60372000" lon="10.96781000">
        <ele>51.000000</ele>
        <time>2010-01-01T02:51:34Z</time>
      </trkpt>
      <trkpt lat="43.60412000" lon="10.96754000">
        <ele>52.000000</ele>
        <time>2010-01-01T02:51:52Z</time>
      </trkpt>
      <trkpt lat="43.60487000" lon="10.96687000">
        <ele>52.000000</ele>
        <time>2010-01-01T02:52:27Z</time>
      </trkpt>
      <trkpt lat="43.60551000" lon="10.96554000">
        <ele>53.000000</ele>
        <time>2010-01-01T02:53:14Z</time>
      </trkpt>
      <trkpt lat="43.60637000" lon="10.96353000">
        <ele>51.000000</ele>
        <time>2010-01-01T02:54:21Z</time>
      </trkpt>
      <trkpt lat="43.60741000" lon="10.96108000">
        <ele>51.000000</ele>
        <time>2010-01-01T02:55:44Z</time>
      </trkpt>
      <trkpt lat="43.60754000" lon="10.96070000">
        <ele>48.000000</ele>
        <time>2010-01-01T02:55:56Z</time>
      </trkpt>
      <trkpt lat="43.60767230" lon="10.96071830">
        <ele>48.000000</ele>
        <time>2010-01-01T02:56:01Z</time>
      </trkpt>
      <trkpt lat="43.60776550" lon="10.96055200">
        <ele>48.000000</ele>
        <time>2010-01-01T02:56:07Z</time>
      </trkpt>
      <trkpt lat="43.60771000" lon="10.96036000">
        <ele>48.000000</ele>
        <time>2010-01-01T02:56:13Z</time>
      </trkpt>
      <trkpt lat="43.60792000" lon="10.95996000">
        <ele>49.000000</ele>
        <time>2010-01-01T02:56:28Z</time>
      </trkpt>
      <trkpt lat="43.60804000" lon="10.95963000">
        <ele>50.000000</ele>
        <time>2010-01-01T02:56:38Z</time>
      </trkpt>
      <trkpt lat="43.60805000" lon="10.95936000">
        <ele>50.000000</ele>
        <time>2010-01-01T02:56:46Z</time>
      </trkpt>
      <trkpt lat="43.60802000" lon="10.95893000">
        <ele>50.000000</ele>
        <time>2010-01-01T02:56:59Z</time>
      </trkpt>
      <trkpt lat="43.60794000" lon="10.95837000">
        <ele>50.000000</ele>
        <time>2010-01-01T02:57:15Z</time>
      </trkpt>
      <trkpt lat="43.60792000" lon="10.95814000">
        <ele>51.000000</ele>
        <time>2010-01-01T02:57:22Z</time>
      </trkpt>
      <trkpt lat="43.60794000" lon="10.95788000">
        <ele>52.000000</ele>
        <time>2010-01-01T02:57:30Z</time>
      </trkpt>
      <trkpt lat="43.60802000" lon="10.95770000">
        <ele>52.000000</ele>
        <time>2010-01-01T02:57:36Z</time>
      </trkpt>
      <trkpt lat="43.60969000" lon="10.95607000">
        <ele>52.000000</ele>
        <time>2010-01-01T02:58:58Z</time>
      </trkpt>
      <trkpt lat="43.60991000" lon="10.95598000">
        <ele>52.000000</ele>
        <time>2010-01-01T02:59:07Z</time>
      </trkpt>
      <trkpt lat="43.61008000" lon="10.95596000">
        <ele>51.000000</ele>
        <time>2010-01-01T02:59:14Z</time>
      </trkpt>
      <trkpt lat="43.61062000" lon="10.95590000">
        <ele>50.000000</ele>
        <time>2010-01-01T02:59:35Z</time>
      </trkpt>
      <trkpt lat="43.61085000" lon="10.95577000">
        <ele>48.000000</ele>
        <time>2010-01-01T02:59:45Z</time>
      </trkpt>
      <trkpt lat="43.61109000" lon="10.95541000">
        <ele>48.000000</ele>
        <time>2010-01-01T02:59:59Z</time>
      </trkpt>
      <trkpt lat="43.61178000" lon="10.95388000">
        <ele>50.000000</ele>
        <time>2010-01-01T03:00:52Z</time>
      </trkpt>
      <trkpt lat="43.61205000" lon="10.95344000">
        <ele>50.000000</ele>
        <time>2010-01-01T03:01:08Z</time>
      </trkpt>
      <trkpt lat="43.61221000" lon="10.95328000">
        <ele>51.000000</ele>
        <time>2010-01-01T03:01:16Z</time>
      </trkpt>
      <trkpt lat="43.61273000" lon="10.95304000">
        <ele>51.000000</ele>
        <time>2010-01-01T03:01:38Z</time>
      </trkpt>
      <trkpt lat="43.61310000" lon="10.95269000">
        <ele>50.000000</ele>
        <time>2010-01-01T03:01:56Z</time>
      </trkpt>
      <trkpt lat="43.61438000" lon="10.95123000">
        <ele>51.000000</ele>
        <time>2010-01-01T03:03:03Z</time>
      </trkpt>
      <trkpt lat="43.61512000" lon="10.95041000">
        <ele>53.000000</ele>
        <time>2010-01-01T03:03:41Z</time>
      </trkpt>
      <trkpt lat="43.61534000" lon="10.95021000">
        <ele>52.000000</ele>
        <time>2010-01-01T03:03:51Z</time>
      </trkpt>
      <trkpt lat="43.61552000" lon="10.95017000">
        <ele>51.000000</ele>
        <time>2010-01-01T03:03:58Z</time>
      </trkpt>
      <trkpt lat="43.61576000" lon="10.95017000">
        <ele>51.000000</ele>
        <time>2010-01-01T03:04:08Z</time>
      </trkpt>
      <trkpt lat="43.61600000" lon="10.95022000">
        <ele>51.000000</ele>
        <time>2010-01-01T03:04:18Z</time>
      </trkpt>
      <trkpt lat="43.61646000" lon="10.95019000">
        <ele>52.000000</ele>
        <time>2010-01-01T03:04:36Z</time>
      </trkpt>
      <trkpt lat="43.61685000" lon="10.95003000">
        <ele>51.000000</ele>
        <time>2010-01-01T03:04:52Z</time>
      </trkpt>
      <trkpt lat="43.61785000" lon="10.94901000">
        <ele>49.000000</ele>
        <time>2010-01-01T03:05:42Z</time>
      </trkpt>
      <trkpt lat="43.61849000" lon="10.94836000">
        <ele>46.000000</ele>
        <time>2010-01-01T03:06:14Z</time>
      </trkpt>
      <trkpt lat="43.61859000" lon="10.94833000">
        <ele>46.000000</ele>
        <time>2010-01-01T03:06:18Z</time>
      </trkpt>
      <trkpt lat="43.61872000" lon="10.94835000">
        <ele>46.000000</ele>
        <time>2010-01-01T03:06:23Z</time>
      </trkpt>
      <trkpt lat="43.61886000" lon="10.94845000">
        <ele>47.000000</ele>
        <time>2010-01-01T03:06:30Z</time>
      </trkpt>
      <trkpt lat="43.61968000" lon="10.94956000">
        <ele>47.000000</ele>
        <time>2010-01-01T03:07:16Z</time>
      </trkpt>
      <trkpt lat="43.61976000" lon="10.94958000">
        <ele>48.000000</ele>
        <time>2010-01-01T03:07:19Z</time>
      </trkpt>
      <trkpt lat="43.62083000" lon="10.94923000">
        <ele>46.000000</ele>
        <time>2010-01-01T03:08:03Z</time>
      </trkpt>
      <trkpt lat="43.62204000" lon="10.94883000">
        <ele>46.000000</ele>
        <time>2010-01-01T03:08:53Z</time>
      </trkpt>
      <trkpt lat="43.62377000" lon="10.94826000">
        <ele>46.000000</ele>
        <time>2010-01-01T03:10:04Z</time>
      </trkpt>
      <trkpt lat="43.62619000" lon="10.94748000">
        <ele>44.000000</ele>
        <time>2010-01-01T03:11:43Z</time>
      </trkpt>
      <trkpt lat="43.62833000" lon="10.94679000">
        <ele>48.000000</ele>
        <time>2010-01-01T03:13:11Z</time>
      </trkpt>
      <trkpt lat="43.62932000" lon="10.94645000">
        <ele>47.000000</ele>
        <time>2010-01-01T03:13:52Z</time>
      </trkpt>
      <trkpt lat="43.63021000" lon="10.94592000">
        <ele>45.000000</ele>
        <time>2010-01-01T03:14:31Z</time>
      </trkpt>
      <trkpt lat="43.63272000" lon="10.94432000">
        <ele>48.000000</ele>
        <time>2010-01-01T03:16:22Z</time>
      </trkpt>
      <trkpt lat="43.63322000" lon="10.94414000">
        <ele>46.000000</ele>
        <time>2010-01-01T03:16:42Z</time>
      </trkpt>
      <trkpt lat="43.63486000" lon="10.94336000">
        <ele>45.000000</ele>
        <time>2010-01-01T03:17:52Z</time>
      </trkpt>
      <trkpt lat="43.63717000" lon="10.94227000">
        <ele>42.000000</ele>
        <time>2010-01-01T03:19:29Z</time>
      </trkpt>
      <trkpt lat="43.63875000" lon="10.94152000">
        <ele>45.000000</ele>
        <time>2010-01-01T03:20:36Z</time>
      </trkpt>
      <trkpt lat="43.63953000" lon="10.94108000">
        <ele>43.000000</ele>
        <time>2010-01-01T03:21:10Z</time>
      </trkpt>
      <trkpt lat="43.64094000" lon="10.93991000">
        <ele>44.000000</ele>
        <time>2010-01-01T03:22:16Z</time>
      </trkpt>
      <trkpt lat="43.64260000" lon="10.93841000">
        <ele>44.000000</ele>
        <time>2010-01-01T03:23:35Z</time>
      </trkpt>
      <trkpt lat="43.64515000" lon="10.93620000">
        <ele>42.000000</ele>
        <time>2010-01-01T03:25:36Z</time>
      </trkpt>
      <trkpt lat="43.64951000" lon="10.93240000">
        <ele>42.000000</ele>
        <time>2010-01-01T03:29:02Z</time>
      </trkpt>
      <trkpt lat="43.65005000" lon="10.93169000">
        <ele>41.000000</ele>
        <time>2010-01-01T03:29:32Z</time>
      </trkpt>
      <trkpt lat="43.65019000" lon="10.93144000">
        <ele>42.000000</ele>
        <time>2010-01-01T03:29:41Z</time>
      </trkpt>
      <trkpt lat="43.65145000" lon="10.92861000">
        <ele>39.000000</ele>
        <time>2010-01-01T03:31:17Z</time>
      </trkpt>
      <trkpt lat="43.65261000" lon="10.92596000">
        <ele>42.000000</ele>
        <time>2010-01-01T03:32:47Z</time>
      </trkpt>
      <trkpt lat="43.65287000" lon="10.92483000">
        <ele>50.000000</ele>
        <time>2010-01-01T03:33:21Z</time>
      </trkpt>
      <trkpt lat="43.65289000" lon="10.92432000">
        <ele>50.000000</ele>
        <time>2010-01-01T03:33:36Z</time>
      </trkpt>
      <trkpt lat="43.65283000" lon="10.92374000">
        <ele>48.000000</ele>
        <time>2010-01-01T03:33:53Z</time>
      </trkpt>
      <trkpt lat="43.65284000" lon="10.92354000">
        <ele>48.000000</ele>
        <time>2010-01-01T03:33:59Z</time>
      </trkpt>
      <trkpt lat="43.65293000" lon="10.92339000">
        <ele>48.000000</ele>
        <time>2010-01-01T03:34:05Z</time>
      </trkpt>
      <trkpt lat="43.65377000" lon="10.92257000">
        <ele>44.000000</ele>
        <time>2010-01-01T03:34:46Z</time>
      </trkpt>
      <trkpt lat="43.65514000" lon="10.92186000">
        <ele>44.000000</ele>
        <time>2010-01-01T03:35:44Z</time>
      </trkpt>
      <trkpt lat="43.65546000" lon="10.92158000">
        <ele>45.000000</ele>
        <time>2010-01-01T03:35:59Z</time>
      </trkpt>
      <trkpt lat="43.65602000" lon="10.92090000">
        <ele>44.000000</ele>
        <time>2010-01-01T03:36:29Z</time>
      </trkpt>
      <trkpt lat="43.65616000" lon="10.92050000">
        <ele>42.000000</ele>
        <time>2010-01-01T03:36:42Z</time>
      </trkpt>
      <trkpt lat="43.65626000" lon="10.91997000">
        <ele>41.000000</ele>
        <time>2010-01-01T03:36:58Z</time>
      </trkpt>
      <trkpt lat="43.65642000" lon="10.91966000">
        <ele>39.000000</ele>
        <time>2010-01-01T03:37:09Z</time>
      </trkpt>
      <trkpt lat="43.65662000" lon="10.91950000">
        <ele>37.000000</ele>
        <time>2010-01-01T03:37:18Z</time>
      </trkpt>
      <trkpt lat="43.65771000" lon="10.91905000">
        <ele>37.000000</ele>
        <time>2010-01-01T03:38:04Z</time>
      </trkpt>
      <trkpt lat="43.65790000" lon="10.91906000">
        <ele>37.000000</ele>
        <time>2010-01-01T03:38:11Z</time>
      </trkpt>
      <trkpt lat="43.65868000" lon="10.91917000">
        <ele>37.000000</ele>
        <time>2010-01-01T03:38:43Z</time>
      </trkpt>
      <trkpt lat="43.65882000" lon="10.91912000">
        <ele>37.000000</ele>
        <time>2010-01-01T03:38:49Z</time>
      </trkpt>
      <trkpt lat="43.65894000" lon="10.91902000">
        <ele>37.000000</ele>
        <time>2010-01-01T03:38:54Z</time>
      </trkpt>
      <trkpt lat="43.66017000" lon="10.91769000">
        <ele>40.000000</ele>
        <time>2010-01-01T03:39:57Z</time>
      </trkpt>
      <trkpt lat="43.66033000" lon="10.91760000">
        <ele>40.000000</ele>
        <time>2010-01-01T03:40:04Z</time>
      </trkpt>
      <trkpt lat="43.66160000" lon="10.91714000">
        <ele>40.000000</ele>
        <time>2010-01-01T03:40:56Z</time>
      </trkpt>
      <trkpt lat="43.66173000" lon="10.91705000">
        <ele>40.000000</ele>
        <time>2010-01-01T03:41:02Z</time>
      </trkpt>
      <trkpt lat="43.66183000" lon="10.91692000">
        <ele>39.000000</ele>
        <time>2010-01-01T03:41:08Z</time>
      </trkpt>
      <trkpt lat="43.66236000" lon="10.91580000">
        <ele>37.000000</ele>
        <time>2010-01-01T03:41:46Z</time>
      </trkpt>
      <trkpt lat="43.66360000" lon="10.91436000">
        <ele>34.000000</ele>
        <time>2010-01-01T03:42:51Z</time>
      </trkpt>
      <trkpt lat="43.66370000" lon="10.91417000">
        <ele>34.000000</ele>
        <time>2010-01-01T03:42:58Z</time>
      </trkpt>
      <trkpt lat="43.66375000" lon="10.91393000">
        <ele>35.000000</ele>
        <time>2010-01-01T03:43:05Z</time>
      </trkpt>
      <trkpt lat="43.66372000" lon="10.91295000">
        <ele>38.000000</ele>
        <time>2010-01-01T03:43:34Z</time>
      </trkpt>
      <trkpt lat="43.66365000" lon="10.91225000">
        <ele>45.000000</ele>
        <time>2010-01-01T03:43:54Z</time>
      </trkpt>
      <trkpt lat="43.66350000" lon="10.91203000">
        <ele>47.000000</ele>
        <time>2010-01-01T03:44:03Z</time>
      </trkpt>
      <trkpt lat="43.66331000" lon="10.91182000">
        <ele>50.000000</ele>
        <time>2010-01-01T03:44:13Z</time>
      </trkpt>
      <trkpt lat="43.66318000" lon="10.91163000">
        <ele>52.000000</ele>
        <time>2010-01-01T03:44:20Z</time>
      </trkpt>
      <trkpt lat="43.66308000" lon="10.91138000">
        <ele>53.000000</ele>
        <time>2010-01-01T03:44:28Z</time>
      </trkpt>
      <trkpt lat="43.66287000" lon="10.91044000">
        <ele>60.000000</ele>
        <time>2010-01-01T03:44:57Z</time>
      </trkpt>
      <trkpt lat="43.66272000" lon="10.91004000">
        <ele>60.000000</ele>
        <time>2010-01-01T03:45:10Z</time>
      </trkpt>
      <trkpt lat="43.66245000" lon="10.90954000">
        <ele>63.000000</ele>
        <time>2010-01-01T03:45:28Z</time>
      </trkpt>
      <trkpt lat="43.66225000" lon="10.90890000">
        <ele>70.000000</ele>
        <time>2010-01-01T03:45:48Z</time>
      </trkpt>
      <trkpt lat="43.66214000" lon="10.90806000">
        <ele>78.000000</ele>
        <time>2010-01-01T03:46:13Z</time>
      </trkpt>
      <trkpt lat="43.66207000" lon="10.90790000">
        <ele>77.000000</ele>
        <time>2010-01-01T03:46:18Z</time>
      </trkpt>
      <trkpt lat="43.66148000" lon="10.90725000">
        <ele>77.000000</ele>
        <time>2010-01-01T03:46:49Z</time>
      </trkpt>
      <trkpt lat="43.66128000" lon="10.90696000">
        <ele>80.000000</ele>
        <time>2010-01-01T03:47:00Z</time>
      </trkpt>
      <trkpt lat="43.66116000" lon="10.90665000">
        <ele>83.000000</ele>
        <time>2010-01-01T03:47:10Z</time>
      </trkpt>
      <trkpt lat="43.66056000" lon="10.90439000">
        <ele>89.000000</ele>
        <time>2010-01-01T03:48:20Z</time>
      </trkpt>
      <trkpt lat="43.66048000" lon="10.90389000">
        <ele>91.000000</ele>
        <time>2010-01-01T03:48:35Z</time>
      </trkpt>
      <trkpt lat="43.66053000" lon="10.90294000">
        <ele>102.00000</ele>
        <time>2010-01-01T03:49:02Z</time>
      </trkpt>
      <trkpt lat="43.66049000" lon="10.90248000">
        <ele>108.00000</ele>
        <time>2010-01-01T03:49:16Z</time>
      </trkpt>
      <trkpt lat="43.66013000" lon="10.90054000">
        <ele>126.00000</ele>
        <time>2010-01-01T03:50:14Z</time>
      </trkpt>
      <trkpt lat="43.65998000" lon="10.90023000">
        <ele>131.00000</ele>
        <time>2010-01-01T03:50:25Z</time>
      </trkpt>
      <trkpt lat="43.65992000" lon="10.90009000">
        <ele>133.00000</ele>
        <time>2010-01-01T03:50:29Z</time>
      </trkpt>
      <trkpt lat="43.65989000" lon="10.89990000">
        <ele>135.00000</ele>
        <time>2010-01-01T03:50:35Z</time>
      </trkpt>
      <trkpt lat="43.65989000" lon="10.89975000">
        <ele>136.00000</ele>
        <time>2010-01-01T03:50:39Z</time>
      </trkpt>
      <trkpt lat="43.65993000" lon="10.89960000">
        <ele>137.00000</ele>
        <time>2010-01-01T03:50:44Z</time>
      </trkpt>
      <trkpt lat="43.66005000" lon="10.89941000">
        <ele>138.00000</ele>
        <time>2010-01-01T03:50:51Z</time>
      </trkpt>
      <trkpt lat="43.66028000" lon="10.89926000">
        <ele>141.00000</ele>
        <time>2010-01-01T03:51:01Z</time>
      </trkpt>
      <trkpt lat="43.66122000" lon="10.89886000">
        <ele>146.00000</ele>
        <time>2010-01-01T03:51:41Z</time>
      </trkpt>
      <trkpt lat="43.66154000" lon="10.89879000">
        <ele>147.00000</ele>
        <time>2010-01-01T03:51:54Z</time>
      </trkpt>
      <trkpt lat="43.66276000" lon="10.89877000">
        <ele>149.00000</ele>
        <time>2010-01-01T03:52:43Z</time>
      </trkpt>
      <trkpt lat="43.66324000" lon="10.89882000">
        <ele>149.00000</ele>
        <time>2010-01-01T03:53:02Z</time>
      </trkpt>
      <trkpt lat="43.66341000" lon="10.89879000">
        <ele>149.00000</ele>
        <time>2010-01-01T03:53:09Z</time>
      </trkpt>
      <trkpt lat="43.66374000" lon="10.89865000">
        <ele>147.00000</ele>
        <time>2010-01-01T03:53:23Z</time>
      </trkpt>
      <trkpt lat="43.66593000" lon="10.89755000">
        <ele>137.00000</ele>
        <time>2010-01-01T03:54:56Z</time>
      </trkpt>
      <trkpt lat="43.66614000" lon="10.89746000">
        <ele>135.00000</ele>
        <time>2010-01-01T03:55:05Z</time>
      </trkpt>
      <trkpt lat="43.66684000" lon="10.89730000">
        <ele>128.00000</ele>
        <time>2010-01-01T03:55:33Z</time>
      </trkpt>
      <trkpt lat="43.66762000" lon="10.89723000">
        <ele>134.00000</ele>
        <time>2010-01-01T03:56:04Z</time>
      </trkpt>
      <trkpt lat="43.66785000" lon="10.89716000">
        <ele>134.00000</ele>
        <time>2010-01-01T03:56:14Z</time>
      </trkpt>
      <trkpt lat="43.66803000" lon="10.89707000">
        <ele>133.00000</ele>
        <time>2010-01-01T03:56:21Z</time>
      </trkpt>
      <trkpt lat="43.66840000" lon="10.89680000">
        <ele>138.00000</ele>
        <time>2010-01-01T03:56:38Z</time>
      </trkpt>
      <trkpt lat="43.66911000" lon="10.89623000">
        <ele>153.00000</ele>
        <time>2010-01-01T03:57:11Z</time>
      </trkpt>
      <trkpt lat="43.66951000" lon="10.89586000">
        <ele>159.00000</ele>
        <time>2010-01-01T03:57:30Z</time>
      </trkpt>
      <trkpt lat="43.66987000" lon="10.89538000">
        <ele>154.00000</ele>
        <time>2010-01-01T03:57:50Z</time>
      </trkpt>
      <trkpt lat="43.67105000" lon="10.89304000">
        <ele>141.00000</ele>
        <time>2010-01-01T03:59:13Z</time>
      </trkpt>
      <trkpt lat="43.67151000" lon="10.89238000">
        <ele>141.00000</ele>
        <time>2010-01-01T03:59:39Z</time>
      </trkpt>
      <trkpt lat="43.67171000" lon="10.89198000">
        <ele>139.00000</ele>
        <time>2010-01-01T03:59:54Z</time>
      </trkpt>
      <trkpt lat="43.67177000" lon="10.89167000">
        <ele>138.00000</ele>
        <time>2010-01-01T04:00:03Z</time>
      </trkpt>
      <trkpt lat="43.67189000" lon="10.89034000">
        <ele>139.00000</ele>
        <time>2010-01-01T04:00:42Z</time>
      </trkpt>
      <trkpt lat="43.67194000" lon="10.89009000">
        <ele>141.00000</ele>
        <time>2010-01-01T04:00:49Z</time>
      </trkpt>
      <trkpt lat="43.67204000" lon="10.88981000">
        <ele>145.00000</ele>
        <time>2010-01-01T04:00:58Z</time>
      </trkpt>
      <trkpt lat="43.67256000" lon="10.88903000">
        <ele>151.00000</ele>
        <time>2010-01-01T04:01:29Z</time>
      </trkpt>
      <trkpt lat="43.67288480" lon="10.88840600">
        <ele>151.00000</ele>
        <time>2010-01-01T04:01:51Z</time>
      </trkpt>
      <trkpt lat="43.67287000" lon="10.88791000">
        <ele>150.00000</ele>
        <time>2010-01-01T04:02:06Z</time>
      </trkpt>
      <trkpt lat="43.67282000" lon="10.88766000">
        <ele>150.00000</ele>
        <time>2010-01-01T04:02:13Z</time>
      </trkpt>
      <trkpt lat="43.67271000" lon="10.88723000">
        <ele>149.00000</ele>
        <time>2010-01-01T04:02:26Z</time>
      </trkpt>
      <trkpt lat="43.67270000" lon="10.88706000">
        <ele>147.00000</ele>
        <time>2010-01-01T04:02:31Z</time>
      </trkpt>
      <trkpt lat="43.67274000" lon="10.88683000">
        <ele>143.00000</ele>
        <time>2010-01-01T04:02:38Z</time>
      </trkpt>
      <trkpt lat="43.67297020" lon="10.88609930">
        <ele>132.00000</ele>
        <time>2010-01-01T04:03:01Z</time>
      </trkpt>
      <trkpt lat="43.67304000" lon="10.88576000">
        <ele>133.00000</ele>
        <time>2010-01-01T04:03:11Z</time>
      </trkpt>
      <trkpt lat="43.67310000" lon="10.88398000">
        <ele>140.00000</ele>
        <time>2010-01-01T04:04:03Z</time>
      </trkpt>
      <trkpt lat="43.67319000" lon="10.88373000">
        <ele>141.00000</ele>
        <time>2010-01-01T04:04:11Z</time>
      </trkpt>
      <trkpt lat="43.67379000" lon="10.88243000">
        <ele>147.00000</ele>
        <time>2010-01-01T04:04:56Z</time>
      </trkpt>
      <trkpt lat="43.67381000" lon="10.88233000">
        <ele>147.00000</ele>
        <time>2010-01-01T04:04:59Z</time>
      </trkpt>
      <trkpt lat="43.67383000" lon="10.88210000">
        <ele>147.00000</ele>
        <time>2010-01-01T04:05:05Z</time>
      </trkpt>
      <trkpt lat="43.67385000" lon="10.88125000">
        <ele>150.00000</ele>
        <time>2010-01-01T04:05:30Z</time>
      </trkpt>
      <trkpt lat="43.67383000" lon="10.88098000">
        <ele>152.00000</ele>
        <time>2010-01-01T04:05:38Z</time>
      </trkpt>
      <trkpt lat="43.67378000" lon="10.88075000">
        <ele>153.00000</ele>
        <time>2010-01-01T04:05:45Z</time>
      </trkpt>
      <trkpt lat="43.67364000" lon="10.88033000">
        <ele>159.00000</ele>
        <time>2010-01-01T04:05:58Z</time>
      </trkpt>
      <trkpt lat="43.67392000" lon="10.87935000">
        <ele>154.00000</ele>
        <time>2010-01-01T04:06:29Z</time>
      </trkpt>
      <trkpt lat="43.67398000" lon="10.87919000">
        <ele>153.00000</ele>
        <time>2010-01-01T04:06:34Z</time>
      </trkpt>
      <trkpt lat="43.67415000" lon="10.87882000">
        <ele>156.00000</ele>
        <time>2010-01-01T04:06:47Z</time>
      </trkpt>
      <trkpt lat="43.67423000" lon="10.87854000">
        <ele>158.00000</ele>
        <time>2010-01-01T04:06:55Z</time>
      </trkpt>
      <trkpt lat="43.67450000" lon="10.87686000">
        <ele>152.00000</ele>
        <time>2010-01-01T04:07:45Z</time>
      </trkpt>
      <trkpt lat="43.67456000" lon="10.87657000">
        <ele>150.00000</ele>
        <time>2010-01-01T04:07:54Z</time>
      </trkpt>
      <trkpt lat="43.67479000" lon="10.87586000">
        <ele>145.00000</ele>
        <time>2010-01-01T04:08:16Z</time>
      </trkpt>
      <trkpt lat="43.67487000" lon="10.87550000">
        <ele>143.00000</ele>
        <time>2010-01-01T04:08:27Z</time>
      </trkpt>
      <trkpt lat="43.67488000" lon="10.87530000">
        <ele>142.00000</ele>
        <time>2010-01-01T04:08:33Z</time>
      </trkpt>
      <trkpt lat="43.67487000" lon="10.87512000">
        <ele>142.00000</ele>
        <time>2010-01-01T04:08:38Z</time>
      </trkpt>
      <trkpt lat="43.67478000" lon="10.87423000">
        <ele>141.00000</ele>
        <time>2010-01-01T04:09:04Z</time>
      </trkpt>
      <trkpt lat="43.67477000" lon="10.87381000">
        <ele>140.00000</ele>
        <time>2010-01-01T04:09:17Z</time>
      </trkpt>
      <trkpt lat="43.67477000" lon="10.87365000">
        <ele>139.00000</ele>
        <time>2010-01-01T04:09:21Z</time>
      </trkpt>
      <trkpt lat="43.67475000" lon="10.87341000">
        <ele>138.00000</ele>
        <time>2010-01-01T04:09:28Z</time>
      </trkpt>
      <trkpt lat="43.67464000" lon="10.87280000">
        <ele>135.00000</ele>
        <time>2010-01-01T04:09:46Z</time>
      </trkpt>
      <trkpt lat="43.67462000" lon="10.87261000">
        <ele>134.00000</ele>
        <time>2010-01-01T04:09:52Z</time>
      </trkpt>
      <trkpt lat="43.67464000" lon="10.87188000">
        <ele>125.00000</ele>
        <time>2010-01-01T04:10:13Z</time>
      </trkpt>
      <trkpt lat="43.67458000" lon="10.87117000">
        <ele>121.00000</ele>
        <time>2010-01-01T04:10:34Z</time>
      </trkpt>
      <trkpt lat="43.67455000" lon="10.87092000">
        <ele>122.00000</ele>
        <time>2010-01-01T04:10:41Z</time>
      </trkpt>
      <trkpt lat="43.67436000" lon="10.87007000">
        <ele>128.00000</ele>
        <time>2010-01-01T04:11:07Z</time>
      </trkpt>
      <trkpt lat="43.67429000" lon="10.86964000">
        <ele>131.00000</ele>
        <time>2010-01-01T04:11:20Z</time>
      </trkpt>
      <trkpt lat="43.67429000" lon="10.86924000">
        <ele>133.00000</ele>
        <time>2010-01-01T04:11:31Z</time>
      </trkpt>
      <trkpt lat="43.67431000" lon="10.86888000">
        <ele>135.00000</ele>
        <time>2010-01-01T04:11:42Z</time>
      </trkpt>
      <trkpt lat="43.67433000" lon="10.86873000">
        <ele>135.00000</ele>
        <time>2010-01-01T04:11:46Z</time>
      </trkpt>
      <trkpt lat="43.67455000" lon="10.86796000">
        <ele>132.00000</ele>
        <time>2010-01-01T04:12:10Z</time>
      </trkpt>
      <trkpt lat="43.67466000" lon="10.86743000">
        <ele>127.00000</ele>
        <time>2010-01-01T04:12:26Z</time>
      </trkpt>
      <trkpt lat="43.67472000" lon="10.86693000">
        <ele>124.00000</ele>
        <time>2010-01-01T04:12:41Z</time>
      </trkpt>
      <trkpt lat="43.67479000" lon="10.86672000">
        <ele>124.00000</ele>
        <time>2010-01-01T04:12:47Z</time>
      </trkpt>
      <trkpt lat="43.67498000" lon="10.86633000">
        <ele>129.00000</ele>
        <time>2010-01-01T04:13:01Z</time>
      </trkpt>
      <trkpt lat="43.67509000" lon="10.86613000">
        <ele>132.00000</ele>
        <time>2010-01-01T04:13:08Z</time>
      </trkpt>
      <trkpt lat="43.67537000" lon="10.86558000">
        <ele>140.00000</ele>
        <time>2010-01-01T04:13:28Z</time>
      </trkpt>
      <trkpt lat="43.67563000" lon="10.86513000">
        <ele>142.00000</ele>
        <time>2010-01-01T04:13:44Z</time>
      </trkpt>
      <trkpt lat="43.67573000" lon="10.86501000">
        <ele>141.00000</ele>
        <time>2010-01-01T04:13:50Z</time>
      </trkpt>
      <trkpt lat="43.67672000" lon="10.86468000">
        <ele>142.00000</ele>
        <time>2010-01-01T04:14:30Z</time>
      </trkpt>
      <trkpt lat="43.67696650" lon="10.86458800">
        <ele>145.00000</ele>
        <time>2010-01-01T04:14:41Z</time>
      </trkpt>
      <trkpt lat="43.67730000" lon="10.86427000">
        <ele>149.00000</ele>
        <time>2010-01-01T04:14:57Z</time>
      </trkpt>
      <trkpt lat="43.67772000" lon="10.86393000">
        <ele>145.00000</ele>
        <time>2010-01-01T04:15:16Z</time>
      </trkpt>
      <trkpt lat="43.67786000" lon="10.86380000">
        <ele>142.00000</ele>
        <time>2010-01-01T04:15:23Z</time>
      </trkpt>
      <trkpt lat="43.67803000" lon="10.86371000">
        <ele>138.00000</ele>
        <time>2010-01-01T04:15:30Z</time>
      </trkpt>
      <trkpt lat="43.67826000" lon="10.86367000">
        <ele>132.00000</ele>
        <time>2010-01-01T04:15:40Z</time>
      </trkpt>
      <trkpt lat="43.67833000" lon="10.86364000">
        <ele>131.00000</ele>
        <time>2010-01-01T04:15:43Z</time>
      </trkpt>
      <trkpt lat="43.67836000" lon="10.86359000">
        <ele>130.00000</ele>
        <time>2010-01-01T04:15:45Z</time>
      </trkpt>
      <trkpt lat="43.67839000" lon="10.86352000">
        <ele>129.00000</ele>
        <time>2010-01-01T04:15:47Z</time>
      </trkpt>
      <trkpt lat="43.67839000" lon="10.86341000">
        <ele>128.00000</ele>
        <time>2010-01-01T04:15:50Z</time>
      </trkpt>
      <trkpt lat="43.67838000" lon="10.86329000">
        <ele>128.00000</ele>
        <time>2010-01-01T04:15:54Z</time>
      </trkpt>
      <trkpt lat="43.67838000" lon="10.86246000">
        <ele>125.00000</ele>
        <time>2010-01-01T04:16:18Z</time>
      </trkpt>
      <trkpt lat="43.67840000" lon="10.86239000">
        <ele>123.00000</ele>
        <time>2010-01-01T04:16:20Z</time>
      </trkpt>
      <trkpt lat="43.67844000" lon="10.86234000">
        <ele>121.00000</ele>
        <time>2010-01-01T04:16:22Z</time>
      </trkpt>
      <trkpt lat="43.67871000" lon="10.86225000">
        <ele>112.00000</ele>
        <time>2010-01-01T04:16:33Z</time>
      </trkpt>
      <trkpt lat="43.67903000" lon="10.86193000">
        <ele>108.00000</ele>
        <time>2010-01-01T04:16:49Z</time>
      </trkpt>
      <trkpt lat="43.67920000" lon="10.86184000">
        <ele>109.00000</ele>
        <time>2010-01-01T04:16:56Z</time>
      </trkpt>
      <trkpt lat="43.67927000" lon="10.86182000">
        <ele>110.00000</ele>
        <time>2010-01-01T04:16:59Z</time>
      </trkpt>
      <trkpt lat="43.67933000" lon="10.86182000">
        <ele>110.00000</ele>
        <time>2010-01-01T04:17:01Z</time>
      </trkpt>
      <trkpt lat="43.67943780" lon="10.86188970">
        <ele>112.00000</ele>
        <time>2010-01-01T04:17:06Z</time>
      </trkpt>
      <trkpt lat="43.67979480" lon="10.86225980">
        <ele>115.00000</ele>
        <time>2010-01-01T04:17:24Z</time>
      </trkpt>
      <trkpt lat="43.67989950" lon="10.86234030">
        <ele>116.00000</ele>
        <time>2010-01-01T04:17:29Z</time>
      </trkpt>
      <trkpt lat="43.68024090" lon="10.86252800">
        <ele>119.00000</ele>
        <time>2010-01-01T04:17:44Z</time>
      </trkpt>
      <trkpt lat="43.68040770" lon="10.86252270">
        <ele>120.00000</ele>
        <time>2010-01-01T04:17:50Z</time>
      </trkpt>
      <trkpt lat="43.68057840" lon="10.86244760">
        <ele>122.00000</ele>
        <time>2010-01-01T04:17:57Z</time>
      </trkpt>
      <trkpt lat="43.68084230" lon="10.86215250">
        <ele>127.00000</ele>
        <time>2010-01-01T04:18:11Z</time>
      </trkpt>
      <trkpt lat="43.68095480" lon="10.86207210">
        <ele>127.00000</ele>
        <time>2010-01-01T04:18:16Z</time>
      </trkpt>
      <trkpt lat="43.68112160" lon="10.86194330">
        <ele>127.00000</ele>
        <time>2010-01-01T04:18:24Z</time>
      </trkpt>
      <trkpt lat="43.68115260" lon="10.86180920">
        <ele>128.00000</ele>
        <time>2010-01-01T04:18:28Z</time>
      </trkpt>
      <trkpt lat="43.68105560" lon="10.86177700">
        <ele>130.00000</ele>
        <time>2010-01-01T04:18:32Z</time>
      </trkpt>
      <trkpt lat="43.68053580" lon="10.86220620">
        <ele>131.00000</ele>
        <time>2010-01-01T04:18:56Z</time>
      </trkpt>
      <trkpt lat="43.68039610" lon="10.86226520">
        <ele>128.00000</ele>
        <time>2010-01-01T04:19:02Z</time>
      </trkpt>
      <trkpt lat="43.68030690" lon="10.86223300">
        <ele>128.00000</ele>
        <time>2010-01-01T04:19:06Z</time>
      </trkpt>
      <trkpt lat="43.68025260" lon="10.86211500">
        <ele>130.00000</ele>
        <time>2010-01-01T04:19:10Z</time>
      </trkpt>
      <trkpt lat="43.68026030" lon="10.86195400">
        <ele>134.00000</ele>
        <time>2010-01-01T04:19:14Z</time>
      </trkpt>
      <trkpt lat="43.68030000" lon="10.86178000">
        <ele>135.00000</ele>
        <time>2010-01-01T04:19:20Z</time>
      </trkpt>
      <trkpt lat="43.68051000" lon="10.86138000">
        <ele>136.00000</ele>
        <time>2010-01-01T04:19:34Z</time>
      </trkpt>
      <trkpt lat="43.68055000" lon="10.86124000">
        <ele>136.00000</ele>
        <time>2010-01-01T04:19:38Z</time>
      </trkpt>
      <trkpt lat="43.68057000" lon="10.86115000">
        <ele>136.00000</ele>
        <time>2010-01-01T04:19:41Z</time>
      </trkpt>
      <trkpt lat="43.68059000" lon="10.86076000">
        <ele>135.00000</ele>
        <time>2010-01-01T04:19:52Z</time>
      </trkpt>
      <trkpt lat="43.68061000" lon="10.86031000">
        <ele>133.00000</ele>
        <time>2010-01-01T04:20:05Z</time>
      </trkpt>
      <trkpt lat="43.68062000" lon="10.86011000">
        <ele>131.00000</ele>
        <time>2010-01-01T04:20:11Z</time>
      </trkpt>
      <trkpt lat="43.68059000" lon="10.85997000">
        <ele>129.00000</ele>
        <time>2010-01-01T04:20:15Z</time>
      </trkpt>
      <trkpt lat="43.68056000" lon="10.85972000">
        <ele>127.00000</ele>
        <time>2010-01-01T04:20:23Z</time>
      </trkpt>
      <trkpt lat="43.68055000" lon="10.85893000">
        <ele>125.00000</ele>
        <time>2010-01-01T04:20:46Z</time>
      </trkpt>
      <trkpt lat="43.68049000" lon="10.85829000">
        <ele>127.00000</ele>
        <time>2010-01-01T04:21:04Z</time>
      </trkpt>
      <trkpt lat="43.68040000" lon="10.85785000">
        <ele>126.00000</ele>
        <time>2010-01-01T04:21:17Z</time>
      </trkpt>
      <trkpt lat="43.68005000" lon="10.85702000">
        <ele>124.00000</ele>
        <time>2010-01-01T04:21:45Z</time>
      </trkpt>
      <trkpt lat="43.67998000" lon="10.85677000">
        <ele>125.00000</ele>
        <time>2010-01-01T04:21:53Z</time>
      </trkpt>
      <trkpt lat="43.67993000" lon="10.85651000">
        <ele>122.00000</ele>
        <time>2010-01-01T04:22:01Z</time>
      </trkpt>
      <trkpt lat="43.67992000" lon="10.85634000">
        <ele>120.00000</ele>
        <time>2010-01-01T04:22:06Z</time>
      </trkpt>
      <trkpt lat="43.67994000" lon="10.85616000">
        <ele>119.00000</ele>
        <time>2010-01-01T04:22:11Z</time>
      </trkpt>
      <trkpt lat="43.67998000" lon="10.85602000">
        <ele>120.00000</ele>
        <time>2010-01-01T04:22:15Z</time>
      </trkpt>
      <trkpt lat="43.68000000" lon="10.85591000">
        <ele>121.00000</ele>
        <time>2010-01-01T04:22:19Z</time>
      </trkpt>
      <trkpt lat="43.68007000" lon="10.85576000">
        <ele>121.00000</ele>
        <time>2010-01-01T04:22:24Z</time>
      </trkpt>
      <trkpt lat="43.68009000" lon="10.85572000">
        <ele>121.00000</ele>
        <time>2010-01-01T04:22:25Z</time>
      </trkpt>
      <trkpt lat="43.68011000" lon="10.85567000">
        <ele>122.00000</ele>
        <time>2010-01-01T04:22:27Z</time>
      </trkpt>
      <trkpt lat="43.68017000" lon="10.85564000">
        <ele>122.00000</ele>
        <time>2010-01-01T04:22:29Z</time>
      </trkpt>
      <trkpt lat="43.68029000" lon="10.85549000">
        <ele>124.00000</ele>
        <time>2010-01-01T04:22:36Z</time>
      </trkpt>
      <trkpt lat="43.68037000" lon="10.85533000">
        <ele>126.00000</ele>
        <time>2010-01-01T04:22:42Z</time>
      </trkpt>
      <trkpt lat="43.68048000" lon="10.85527000">
        <ele>127.00000</ele>
        <time>2010-01-01T04:22:46Z</time>
      </trkpt>
      <trkpt lat="43.68054000" lon="10.85524000">
        <ele>128.00000</ele>
        <time>2010-01-01T04:22:49Z</time>
      </trkpt>
      <trkpt lat="43.68077000" lon="10.85509000">
        <ele>131.00000</ele>
        <time>2010-01-01T04:22:59Z</time>
      </trkpt>
      <trkpt lat="43.68088000" lon="10.85499000">
        <ele>134.00000</ele>
        <time>2010-01-01T04:23:04Z</time>
      </trkpt>
      <trkpt lat="43.68097000" lon="10.85490000">
        <ele>136.00000</ele>
        <time>2010-01-01T04:23:09Z</time>
      </trkpt>
      <trkpt lat="43.68113000" lon="10.85479000">
        <ele>139.00000</ele>
        <time>2010-01-01T04:23:16Z</time>
      </trkpt>
      <trkpt lat="43.68146000" lon="10.85456000">
        <ele>144.00000</ele>
        <time>2010-01-01T04:23:31Z</time>
      </trkpt>
      <trkpt lat="43.68157000" lon="10.85446000">
        <ele>146.00000</ele>
        <time>2010-01-01T04:23:36Z</time>
      </trkpt>
      <trkpt lat="43.68167000" lon="10.85431000">
        <ele>148.00000</ele>
        <time>2010-01-01T04:23:42Z</time>
      </trkpt>
      <trkpt lat="43.68177000" lon="10.85408000">
        <ele>151.00000</ele>
        <time>2010-01-01T04:23:50Z</time>
      </trkpt>
      <trkpt lat="43.68179000" lon="10.85406000">
        <ele>151.00000</ele>
        <time>2010-01-01T04:23:51Z</time>
      </trkpt>
      <trkpt lat="43.68187000" lon="10.85396000">
        <ele>151.00000</ele>
        <time>2010-01-01T04:23:55Z</time>
      </trkpt>
      <trkpt lat="43.68194000" lon="10.85385000">
        <ele>152.00000</ele>
        <time>2010-01-01T04:23:59Z</time>
      </trkpt>
      <trkpt lat="43.68202000" lon="10.85377000">
        <ele>151.00000</ele>
        <time>2010-01-01T04:24:03Z</time>
      </trkpt>
      <trkpt lat="43.68204000" lon="10.85374000">
        <ele>151.00000</ele>
        <time>2010-01-01T04:24:04Z</time>
      </trkpt>
      <trkpt lat="43.68208000" lon="10.85360000">
        <ele>153.00000</ele>
        <time>2010-01-01T04:24:09Z</time>
      </trkpt>
      <trkpt lat="43.68222000" lon="10.85325000">
        <ele>152.00000</ele>
        <time>2010-01-01T04:24:20Z</time>
      </trkpt>
      <trkpt lat="43.68225000" lon="10.85304000">
        <ele>151.00000</ele>
        <time>2010-01-01T04:24:26Z</time>
      </trkpt>
      <trkpt lat="43.68221000" lon="10.85283000">
        <ele>150.00000</ele>
        <time>2010-01-01T04:24:33Z</time>
      </trkpt>
      <trkpt lat="43.68215000" lon="10.85268000">
        <ele>151.00000</ele>
        <time>2010-01-01T04:24:38Z</time>
      </trkpt>
      <trkpt lat="43.68207000" lon="10.85257000">
        <ele>152.00000</ele>
        <time>2010-01-01T04:24:42Z</time>
      </trkpt>
      <trkpt lat="43.68199000" lon="10.85249000">
        <ele>153.00000</ele>
        <time>2010-01-01T04:24:46Z</time>
      </trkpt>
      <trkpt lat="43.68190000" lon="10.85243000">
        <ele>153.00000</ele>
        <time>2010-01-01T04:24:50Z</time>
      </trkpt>
      <trkpt lat="43.68163000" lon="10.85239000">
        <ele>154.00000</ele>
        <time>2010-01-01T04:25:01Z</time>
      </trkpt>
      <trkpt lat="43.68140000" lon="10.85241000">
        <ele>159.00000</ele>
        <time>2010-01-01T04:25:10Z</time>
      </trkpt>
      <trkpt lat="43.68136000" lon="10.85229000">
        <ele>155.00000</ele>
        <time>2010-01-01T04:25:14Z</time>
      </trkpt>
      <trkpt lat="43.68113000" lon="10.85212000">
        <ele>153.00000</ele>
        <time>2010-01-01T04:25:25Z</time>
      </trkpt>
      <trkpt lat="43.68084000" lon="10.85182000">
        <ele>152.00000</ele>
        <time>2010-01-01T04:25:39Z</time>
      </trkpt>
      <trkpt lat="43.68062000" lon="10.85150000">
        <ele>150.00000</ele>
        <time>2010-01-01T04:25:52Z</time>
      </trkpt>
      <trkpt lat="43.68048000" lon="10.85142000">
        <ele>152.00000</ele>
        <time>2010-01-01T04:25:58Z</time>
      </trkpt>
      <trkpt lat="43.68030000" lon="10.85128000">
        <ele>153.00000</ele>
        <time>2010-01-01T04:26:06Z</time>
      </trkpt>
      <trkpt lat="43.68023000" lon="10.85118000">
        <ele>151.00000</ele>
        <time>2010-01-01T04:26:10Z</time>
      </trkpt>
      <trkpt lat="43.68006000" lon="10.85088000">
        <ele>149.00000</ele>
        <time>2010-01-01T04:26:21Z</time>
      </trkpt>
      <trkpt lat="43.67999000" lon="10.85071000">
        <ele>149.00000</ele>
        <time>2010-01-01T04:26:27Z</time>
      </trkpt>
      <trkpt lat="43.67994000" lon="10.85054000">
        <ele>148.00000</ele>
        <time>2010-01-01T04:26:32Z</time>
      </trkpt>
      <trkpt lat="43.67989000" lon="10.85040000">
        <ele>148.00000</ele>
        <time>2010-01-01T04:26:37Z</time>
      </trkpt>
      <trkpt lat="43.67986000" lon="10.85031000">
        <ele>147.00000</ele>
        <time>2010-01-01T04:26:40Z</time>
      </trkpt>
      <trkpt lat="43.67975000" lon="10.85000000">
        <ele>145.00000</ele>
        <time>2010-01-01T04:26:50Z</time>
      </trkpt>
      <trkpt lat="43.67981030" lon="10.84960520">
        <ele>144.00000</ele>
        <time>2010-01-01T04:27:01Z</time>
      </trkpt>
      <trkpt lat="43.67980640" lon="10.84921360">
        <ele>146.00000</ele>
        <time>2010-01-01T04:27:13Z</time>
      </trkpt>
      <trkpt lat="43.68008000" lon="10.84879000">
        <ele>146.00000</ele>
        <time>2010-01-01T04:27:29Z</time>
      </trkpt>
      <trkpt lat="43.68003000" lon="10.84851000">
        <ele>149.00000</ele>
        <time>2010-01-01T04:27:37Z</time>
      </trkpt>
      <trkpt lat="43.68008000" lon="10.84842000">
        <ele>149.00000</ele>
        <time>2010-01-01T04:27:41Z</time>
      </trkpt>
      <trkpt lat="43.68016000" lon="10.84829000">
        <ele>149.00000</ele>
        <time>2010-01-01T04:27:46Z</time>
      </trkpt>
      <trkpt lat="43.68035000" lon="10.84807000">
        <ele>149.00000</ele>
        <time>2010-01-01T04:27:56Z</time>
      </trkpt>
      <trkpt lat="43.68073000" lon="10.84772000">
        <ele>147.00000</ele>
        <time>2010-01-01T04:28:14Z</time>
      </trkpt>
      <trkpt lat="43.68134000" lon="10.84715000">
        <ele>150.00000</ele>
        <time>2010-01-01T04:28:43Z</time>
      </trkpt>
      <trkpt lat="43.68158000" lon="10.84684000">
        <ele>147.00000</ele>
        <time>2010-01-01T04:28:56Z</time>
      </trkpt>
      <trkpt lat="43.68173000" lon="10.84635000">
        <ele>141.00000</ele>
        <time>2010-01-01T04:29:12Z</time>
      </trkpt>
      <trkpt lat="43.68182000" lon="10.84641000">
        <ele>141.00000</ele>
        <time>2010-01-01T04:29:16Z</time>
      </trkpt>
      <trkpt lat="43.68190000" lon="10.84652000">
        <ele>141.00000</ele>
        <time>2010-01-01T04:29:20Z</time>
      </trkpt>
      <trkpt lat="43.68206000" lon="10.84681000">
        <ele>142.00000</ele>
        <time>2010-01-01T04:29:31Z</time>
      </trkpt>
      <trkpt lat="43.68211000" lon="10.84701000">
        <ele>142.00000</ele>
        <time>2010-01-01T04:29:37Z</time>
      </trkpt>
      <trkpt lat="43.68216000" lon="10.84705000">
        <ele>141.00000</ele>
        <time>2010-01-01T04:29:39Z</time>
      </trkpt>
      <trkpt lat="43.68221000" lon="10.84703000">
        <ele>140.00000</ele>
        <time>2010-01-01T04:29:41Z</time>
      </trkpt>
      <trkpt lat="43.68225000" lon="10.84696000">
        <ele>138.00000</ele>
        <time>2010-01-01T04:29:44Z</time>
      </trkpt>
      <trkpt lat="43.68219000" lon="10.84651000">
        <ele>135.00000</ele>
        <time>2010-01-01T04:29:57Z</time>
      </trkpt>
      <trkpt lat="43.68204000" lon="10.84589000">
        <ele>130.00000</ele>
        <time>2010-01-01T04:30:16Z</time>
      </trkpt>
      <trkpt lat="43.68200000" lon="10.84555000">
        <ele>129.00000</ele>
        <time>2010-01-01T04:30:26Z</time>
      </trkpt>
      <trkpt lat="43.68210000" lon="10.84510000">
        <ele>122.00000</ele>
        <time>2010-01-01T04:30:40Z</time>
      </trkpt>
      <trkpt lat="43.68216000" lon="10.84496000">
        <ele>120.00000</ele>
        <time>2010-01-01T04:30:44Z</time>
      </trkpt>
      <trkpt lat="43.68233000" lon="10.84475000">
        <ele>116.00000</ele>
        <time>2010-01-01T04:30:54Z</time>
      </trkpt>
      <trkpt lat="43.68270000" lon="10.84444000">
        <ele>113.00000</ele>
        <time>2010-01-01T04:31:11Z</time>
      </trkpt>
      <trkpt lat="43.68374000" lon="10.84372000">
        <ele>102.00000</ele>
        <time>2010-01-01T04:31:57Z</time>
      </trkpt>
      <trkpt lat="43.68403000" lon="10.84359000">
        <ele>103.00000</ele>
        <time>2010-01-01T04:32:10Z</time>
      </trkpt>
      <trkpt lat="43.68454000" lon="10.84362000">
        <ele>97.000000</ele>
        <time>2010-01-01T04:32:30Z</time>
      </trkpt>
      <trkpt lat="43.68534000" lon="10.84373000">
        <ele>87.000000</ele>
        <time>2010-01-01T04:33:02Z</time>
      </trkpt>
      <trkpt lat="43.68596000" lon="10.84387000">
        <ele>81.000000</ele>
        <time>2010-01-01T04:33:27Z</time>
      </trkpt>
      <trkpt lat="43.68645000" lon="10.84408000">
        <ele>73.000000</ele>
        <time>2010-01-01T04:33:48Z</time>
      </trkpt>
      <trkpt lat="43.68657000" lon="10.84403000">
        <ele>73.000000</ele>
        <time>2010-01-01T04:33:53Z</time>
      </trkpt>
      <trkpt lat="43.68665000" lon="10.84394000">
        <ele>72.000000</ele>
        <time>2010-01-01T04:33:57Z</time>
      </trkpt>
      <trkpt lat="43.68692000" lon="10.84344000">
        <ele>68.000000</ele>
        <time>2010-01-01T04:34:15Z</time>
      </trkpt>
      <trkpt lat="43.68693000" lon="10.84338000">
        <ele>68.000000</ele>
        <time>2010-01-01T04:34:17Z</time>
      </trkpt>
      <trkpt lat="43.68692000" lon="10.84332000">
        <ele>68.000000</ele>
        <time>2010-01-01T04:34:19Z</time>
      </trkpt>
      <trkpt lat="43.68688000" lon="10.84325000">
        <ele>68.000000</ele>
        <time>2010-01-01T04:34:21Z</time>
      </trkpt>
      <trkpt lat="43.68640000" lon="10.84261000">
        <ele>68.000000</ele>
        <time>2010-01-01T04:34:48Z</time>
      </trkpt>
      <trkpt lat="43.68637000" lon="10.84250000">
        <ele>68.000000</ele>
        <time>2010-01-01T04:34:51Z</time>
      </trkpt>
      <trkpt lat="43.68639000" lon="10.84241000">
        <ele>66.000000</ele>
        <time>2010-01-01T04:34:54Z</time>
      </trkpt>
      <trkpt lat="43.68643000" lon="10.84238000">
        <ele>65.000000</ele>
        <time>2010-01-01T04:34:56Z</time>
      </trkpt>
      <trkpt lat="43.68654000" lon="10.84239000">
        <ele>62.000000</ele>
        <time>2010-01-01T04:35:00Z</time>
      </trkpt>
      <trkpt lat="43.68684000" lon="10.84248000">
        <ele>58.000000</ele>
        <time>2010-01-01T04:35:13Z</time>
      </trkpt>
      <trkpt lat="43.68806000" lon="10.84248000">
        <ele>42.000000</ele>
        <time>2010-01-01T04:36:02Z</time>
      </trkpt>
      <trkpt lat="43.68813000" lon="10.84250000">
        <ele>41.000000</ele>
        <time>2010-01-01T04:36:04Z</time>
      </trkpt>
      <trkpt lat="43.68816000" lon="10.84255000">
        <ele>42.000000</ele>
        <time>2010-01-01T04:36:06Z</time>
      </trkpt>
      <trkpt lat="43.68843000" lon="10.84308000">
        <ele>41.000000</ele>
        <time>2010-01-01T04:36:25Z</time>
      </trkpt>
      <trkpt lat="43.68849000" lon="10.84315000">
        <ele>40.000000</ele>
        <time>2010-01-01T04:36:28Z</time>
      </trkpt>
      <trkpt lat="43.68857000" lon="10.84320000">
        <ele>39.000000</ele>
        <time>2010-01-01T04:36:32Z</time>
      </trkpt>
      <trkpt lat="43.68865000" lon="10.84321000">
        <ele>38.000000</ele>
        <time>2010-01-01T04:36:35Z</time>
      </trkpt>
      <trkpt lat="43.68948000" lon="10.84317000">
        <ele>31.000000</ele>
        <time>2010-01-01T04:37:08Z</time>
      </trkpt>
      <trkpt lat="43.69019000" lon="10.84305000">
        <ele>30.000000</ele>
        <time>2010-01-01T04:37:37Z</time>
      </trkpt>
      <trkpt lat="43.69116000" lon="10.84264000">
        <ele>31.000000</ele>
        <time>2010-01-01T04:38:17Z</time>
      </trkpt>
      <trkpt lat="43.69217000" lon="10.84213000">
        <ele>31.000000</ele>
        <time>2010-01-01T04:39:00Z</time>
      </trkpt>
      <trkpt lat="43.69252000" lon="10.84189000">
        <ele>32.000000</ele>
        <time>2010-01-01T04:39:16Z</time>
      </trkpt>
      <trkpt lat="43.69338000" lon="10.84116000">
        <ele>29.000000</ele>
        <time>2010-01-01T04:39:56Z</time>
      </trkpt>
      <trkpt lat="43.69372000" lon="10.84095000">
        <ele>30.000000</ele>
        <time>2010-01-01T04:40:11Z</time>
      </trkpt>
      <trkpt lat="43.69413000" lon="10.84048000">
        <ele>29.000000</ele>
        <time>2010-01-01T04:40:33Z</time>
      </trkpt>
      <trkpt lat="43.69468000" lon="10.83977000">
        <ele>27.000000</ele>
        <time>2010-01-01T04:41:03Z</time>
      </trkpt>
      <trkpt lat="43.69506000" lon="10.83924000">
        <ele>26.000000</ele>
        <time>2010-01-01T04:41:24Z</time>
      </trkpt>
      <trkpt lat="43.69524000" lon="10.83913000">
        <ele>27.000000</ele>
        <time>2010-01-01T04:41:32Z</time>
      </trkpt>
      <trkpt lat="43.69532000" lon="10.83915000">
        <ele>26.000000</ele>
        <time>2010-01-01T04:41:36Z</time>
      </trkpt>
      <trkpt lat="43.69538000" lon="10.83910000">
        <ele>26.000000</ele>
        <time>2010-01-01T04:41:38Z</time>
      </trkpt>
      <trkpt lat="43.69542000" lon="10.83898000">
        <ele>26.000000</ele>
        <time>2010-01-01T04:41:42Z</time>
      </trkpt>
      <trkpt lat="43.69548000" lon="10.83877000">
        <ele>26.000000</ele>
        <time>2010-01-01T04:41:49Z</time>
      </trkpt>
      <trkpt lat="43.69595000" lon="10.83815000">
        <ele>26.000000</ele>
        <time>2010-01-01T04:42:15Z</time>
      </trkpt>
      <trkpt lat="43.69680000" lon="10.83704000">
        <ele>24.000000</ele>
        <time>2010-01-01T04:43:01Z</time>
      </trkpt>
      <trkpt lat="43.69729000" lon="10.83644000">
        <ele>24.000000</ele>
        <time>2010-01-01T04:43:28Z</time>
      </trkpt>
      <trkpt lat="43.69833000" lon="10.83506000">
        <ele>26.000000</ele>
        <time>2010-01-01T04:44:25Z</time>
      </trkpt>
      <trkpt lat="43.69943000" lon="10.83370000">
        <ele>23.000000</ele>
        <time>2010-01-01T04:45:24Z</time>
      </trkpt>
      <trkpt lat="43.70052000" lon="10.83228000">
        <ele>23.000000</ele>
        <time>2010-01-01T04:46:24Z</time>
      </trkpt>
      <trkpt lat="43.70111000" lon="10.83137000">
        <ele>22.000000</ele>
        <time>2010-01-01T04:47:00Z</time>
      </trkpt>
      <trkpt lat="43.70154000" lon="10.83099000">
        <ele>23.000000</ele>
        <time>2010-01-01T04:47:20Z</time>
      </trkpt>
      <trkpt lat="43.70206000" lon="10.83035000">
        <ele>21.000000</ele>
        <time>2010-01-01T04:47:48Z</time>
      </trkpt>
      <trkpt lat="43.70284000" lon="10.82942000">
        <ele>25.000000</ele>
        <time>2010-01-01T04:48:29Z</time>
      </trkpt>
      <trkpt lat="43.70391000" lon="10.82827000">
        <ele>22.000000</ele>
        <time>2010-01-01T04:49:24Z</time>
      </trkpt>
      <trkpt lat="43.70437000" lon="10.82774000">
        <ele>23.000000</ele>
        <time>2010-01-01T04:49:47Z</time>
      </trkpt>
      <trkpt lat="43.70449000" lon="10.82751000">
        <ele>22.000000</ele>
        <time>2010-01-01T04:49:56Z</time>
      </trkpt>
      <trkpt lat="43.70490000" lon="10.82722000">
        <ele>21.000000</ele>
        <time>2010-01-01T04:50:14Z</time>
      </trkpt>
      <trkpt lat="43.70584000" lon="10.82624000">
        <ele>20.000000</ele>
        <time>2010-01-01T04:51:01Z</time>
      </trkpt>
      <trkpt lat="43.70612000" lon="10.82591000">
        <ele>21.000000</ele>
        <time>2010-01-01T04:51:16Z</time>
      </trkpt>
      <trkpt lat="43.70620000" lon="10.82579000">
        <ele>21.000000</ele>
        <time>2010-01-01T04:51:21Z</time>
      </trkpt>
      <trkpt lat="43.70715000" lon="10.82406000">
        <ele>20.000000</ele>
        <time>2010-01-01T04:52:24Z</time>
      </trkpt>
      <trkpt lat="43.70752000" lon="10.82337000">
        <ele>22.000000</ele>
        <time>2010-01-01T04:52:48Z</time>
      </trkpt>
      <trkpt lat="43.70778000" lon="10.82289000">
        <ele>23.000000</ele>
        <time>2010-01-01T04:53:06Z</time>
      </trkpt>
      <trkpt lat="43.70770980" lon="10.82282060">
        <ele>23.000000</ele>
        <time>2010-01-01T04:53:09Z</time>
      </trkpt>
      <trkpt lat="43.70781840" lon="10.82256310">
        <ele>22.000000</ele>
        <time>2010-01-01T04:53:18Z</time>
      </trkpt>
      <trkpt lat="43.70760900" lon="10.82228420">
        <ele>22.000000</ele>
        <time>2010-01-01T04:53:29Z</time>
      </trkpt>
      <trkpt lat="43.70772530" lon="10.82191940">
        <ele>21.000000</ele>
        <time>2010-01-01T04:53:41Z</time>
      </trkpt>
      <trkpt lat="43.70773310" lon="10.82107180">
        <ele>21.000000</ele>
        <time>2010-01-01T04:54:06Z</time>
      </trkpt>
      <trkpt lat="43.70769430" lon="10.82065340">
        <ele>21.000000</ele>
        <time>2010-01-01T04:54:18Z</time>
      </trkpt>
      <trkpt lat="43.70784940" lon="10.81879730">
        <ele>21.000000</ele>
        <time>2010-01-01T04:55:12Z</time>
      </trkpt>
      <trkpt lat="43.70786490" lon="10.81833600">
        <ele>20.000000</ele>
        <time>2010-01-01T04:55:25Z</time>
      </trkpt>
      <trkpt lat="43.70791140" lon="10.81789610">
        <ele>20.000000</ele>
        <time>2010-01-01T04:55:38Z</time>
      </trkpt>
      <trkpt lat="43.70810530" lon="10.81713430">
        <ele>20.000000</ele>
        <time>2010-01-01T04:56:01Z</time>
      </trkpt>
      <trkpt lat="43.70784940" lon="10.81673740">
        <ele>20.000000</ele>
        <time>2010-01-01T04:56:17Z</time>
      </trkpt>
      <trkpt lat="43.70756240" lon="10.81580400">
        <ele>19.000000</ele>
        <time>2010-01-01T04:56:46Z</time>
      </trkpt>
      <trkpt lat="43.70737630" lon="10.81532120">
        <ele>18.000000</ele>
        <time>2010-01-01T04:57:02Z</time>
      </trkpt>
      <trkpt lat="43.70720570" lon="10.81496710">
        <ele>19.000000</ele>
        <time>2010-01-01T04:57:14Z</time>
      </trkpt>
      <trkpt lat="43.70707380" lon="10.81410880">
        <ele>22.000000</ele>
        <time>2010-01-01T04:57:40Z</time>
      </trkpt>
      <trkpt lat="43.70702730" lon="10.81331490">
        <ele>20.000000</ele>
        <time>2010-01-01T04:58:03Z</time>
      </trkpt>
      <trkpt lat="43.70423520" lon="10.81102960">
        <ele>23.000000</ele>
        <time>2010-01-01T05:00:13Z</time>
      </trkpt>
      <trkpt lat="43.70370780" lon="10.81040740">
        <ele>20.000000</ele>
        <time>2010-01-01T05:00:40Z</time>
      </trkpt>
      <trkpt lat="43.70343630" lon="10.80988160">
        <ele>20.000000</ele>
        <time>2010-01-01T05:00:59Z</time>
      </trkpt>
      <trkpt lat="43.70336650" lon="10.80938810">
        <ele>19.000000</ele>
        <time>2010-01-01T05:01:14Z</time>
      </trkpt>
      <trkpt lat="43.70390940" lon="10.80551500">
        <ele>20.000000</ele>
        <time>2010-01-01T05:03:08Z</time>
      </trkpt>
      <trkpt lat="43.70394820" lon="10.80286500">
        <ele>20.000000</ele>
        <time>2010-01-01T05:04:24Z</time>
      </trkpt>
      <trkpt lat="43.70373880" lon="10.80097670">
        <ele>21.000000</ele>
        <time>2010-01-01T05:05:20Z</time>
      </trkpt>
      <trkpt lat="43.70352160" lon="10.80064410">
        <ele>19.000000</ele>
        <time>2010-01-01T05:05:33Z</time>
      </trkpt>
      <trkpt lat="43.70371550" lon="10.79983940">
        <ele>20.000000</ele>
        <time>2010-01-01T05:05:57Z</time>
      </trkpt>
      <trkpt lat="43.70348280" lon="10.79845540">
        <ele>21.000000</ele>
        <time>2010-01-01T05:06:38Z</time>
      </trkpt>
      <trkpt lat="43.70385510" lon="10.79796190">
        <ele>20.000000</ele>
        <time>2010-01-01T05:06:59Z</time>
      </trkpt>
      <trkpt lat="43.70380860" lon="10.79659930">
        <ele>22.000000</ele>
        <time>2010-01-01T05:07:39Z</time>
      </trkpt>
      <trkpt lat="43.70607330" lon="10.79232930">
        <ele>20.000000</ele>
        <time>2010-01-01T05:10:12Z</time>
      </trkpt>
      <trkpt lat="43.70674810" lon="10.79020500">
        <ele>19.000000</ele>
        <time>2010-01-01T05:11:19Z</time>
      </trkpt>
      <trkpt lat="43.70693420" lon="10.78919640">
        <ele>20.000000</ele>
        <time>2010-01-01T05:11:49Z</time>
      </trkpt>
      <trkpt lat="43.70732980" lon="10.78452940">
        <ele>22.000000</ele>
        <time>2010-01-01T05:14:05Z</time>
      </trkpt>
      <trkpt lat="43.70698460" lon="10.78224420">
        <ele>20.000000</ele>
        <time>2010-01-01T05:15:13Z</time>
      </trkpt>
      <trkpt lat="43.70646110" lon="10.77973360">
        <ele>23.000000</ele>
        <time>2010-01-01T05:16:28Z</time>
      </trkpt>
      <trkpt lat="43.70589500" lon="10.77763080">
        <ele>19.000000</ele>
        <time>2010-01-01T05:17:33Z</time>
      </trkpt>
      <trkpt lat="43.70528610" lon="10.77606970">
        <ele>22.000000</ele>
        <time>2010-01-01T05:18:24Z</time>
      </trkpt>
      <trkpt lat="43.70453770" lon="10.77460520">
        <ele>21.000000</ele>
        <time>2010-01-01T05:19:16Z</time>
      </trkpt>
      <trkpt lat="43.70386680" lon="10.77354840">
        <ele>17.000000</ele>
        <time>2010-01-01T05:19:57Z</time>
      </trkpt>
      <trkpt lat="43.70334320" lon="10.77302810">
        <ele>17.000000</ele>
        <time>2010-01-01T05:20:23Z</time>
      </trkpt>
      <trkpt lat="43.70264520" lon="10.77263110">
        <ele>20.000000</ele>
        <time>2010-01-01T05:20:53Z</time>
      </trkpt>
      <trkpt lat="43.70225740" lon="10.77228780">
        <ele>19.000000</ele>
        <time>2010-01-01T05:21:11Z</time>
      </trkpt>
      <trkpt lat="43.70181910" lon="10.77164940">
        <ele>21.000000</ele>
        <time>2010-01-01T05:21:37Z</time>
      </trkpt>
      <trkpt lat="43.70112100" lon="10.77102180">
        <ele>18.000000</ele>
        <time>2010-01-01T05:22:10Z</time>
      </trkpt>
      <trkpt lat="43.69867770" lon="10.76928910">
        <ele>20.000000</ele>
        <time>2010-01-01T05:24:00Z</time>
      </trkpt>
      <trkpt lat="43.69657950" lon="10.76803920">
        <ele>19.000000</ele>
        <time>2010-01-01T05:25:32Z</time>
      </trkpt>
      <trkpt lat="43.69463630" lon="10.76654250">
        <ele>19.000000</ele>
        <time>2010-01-01T05:27:01Z</time>
      </trkpt>
      <trkpt lat="43.69356580" lon="10.76555550">
        <ele>19.000000</ele>
        <time>2010-01-01T05:27:52Z</time>
      </trkpt>
      <trkpt lat="43.69263880" lon="10.76471860">
        <ele>20.000000</ele>
        <time>2010-01-01T05:28:37Z</time>
      </trkpt>
      <trkpt lat="43.69176600" lon="10.76285180">
        <ele>23.000000</ele>
        <time>2010-01-01T05:29:41Z</time>
      </trkpt>
      <trkpt lat="43.69141690" lon="10.76174670">
        <ele>22.000000</ele>
        <time>2010-01-01T05:30:16Z</time>
      </trkpt>
      <trkpt lat="43.69103680" lon="10.76145170">
        <ele>24.000000</ele>
        <time>2010-01-01T05:30:33Z</time>
      </trkpt>
      <trkpt lat="43.69093210" lon="10.76124780">
        <ele>23.000000</ele>
        <time>2010-01-01T05:30:40Z</time>
      </trkpt>
      <trkpt lat="43.69088550" lon="10.76097960">
        <ele>22.000000</ele>
        <time>2010-01-01T05:30:48Z</time>
      </trkpt>
      <trkpt lat="43.69125790" lon="10.76067920">
        <ele>20.000000</ele>
        <time>2010-01-01T05:31:06Z</time>
      </trkpt>
      <trkpt lat="43.69118810" lon="10.76016420">
        <ele>20.000000</ele>
        <time>2010-01-01T05:31:21Z</time>
      </trkpt>
      <trkpt lat="43.69119580" lon="10.75945610">
        <ele>20.000000</ele>
        <time>2010-01-01T05:31:41Z</time>
      </trkpt>
      <trkpt lat="43.69123850" lon="10.75841540">
        <ele>23.000000</ele>
        <time>2010-01-01T05:32:12Z</time>
      </trkpt>
      <trkpt lat="43.69130450" lon="10.75812570">
        <ele>23.000000</ele>
        <time>2010-01-01T05:32:20Z</time>
      </trkpt>
      <trkpt lat="43.69161860" lon="10.75750350">
        <ele>20.000000</ele>
        <time>2010-01-01T05:32:42Z</time>
      </trkpt>
      <trkpt lat="43.69194060" lon="10.75552940">
        <ele>20.000000</ele>
        <time>2010-01-01T05:33:41Z</time>
      </trkpt>
      <trkpt lat="43.69230520" lon="10.75384490">
        <ele>21.000000</ele>
        <time>2010-01-01T05:34:32Z</time>
      </trkpt>
      <trkpt lat="43.69260770" lon="10.75241800">
        <ele>21.000000</ele>
        <time>2010-01-01T05:35:15Z</time>
      </trkpt>
      <trkpt lat="43.69268530" lon="10.75108760">
        <ele>20.000000</ele>
        <time>2010-01-01T05:35:53Z</time>
      </trkpt>
      <trkpt lat="43.69285600" lon="10.74996110">
        <ele>18.000000</ele>
        <time>2010-01-01T05:36:27Z</time>
      </trkpt>
      <trkpt lat="43.69294520" lon="10.74853950">
        <ele>19.000000</ele>
        <time>2010-01-01T05:37:08Z</time>
      </trkpt>
      <trkpt lat="43.69481860" lon="10.74856630">
        <ele>16.000000</ele>
        <time>2010-01-01T05:38:23Z</time>
      </trkpt>
      <trkpt lat="43.69493500" lon="10.74870580">
        <ele>18.000000</ele>
        <time>2010-01-01T05:38:29Z</time>
      </trkpt>
      <trkpt lat="43.69509010" lon="10.74853420">
        <ele>20.000000</ele>
        <time>2010-01-01T05:38:37Z</time>
      </trkpt>
      <trkpt lat="43.69501250" lon="10.74829810">
        <ele>22.000000</ele>
        <time>2010-01-01T05:38:45Z</time>
      </trkpt>
      <trkpt lat="43.69503580" lon="10.74586270">
        <ele>20.000000</ele>
        <time>2010-01-01T05:39:55Z</time>
      </trkpt>
      <trkpt lat="43.69692850" lon="10.74422120">
        <ele>21.000000</ele>
        <time>2010-01-01T05:41:25Z</time>
      </trkpt>
      <trkpt lat="43.69909660" lon="10.74232220">
        <ele>18.000000</ele>
        <time>2010-01-01T05:43:07Z</time>
      </trkpt>
      <trkpt lat="43.69874000" lon="10.73698000">
        <ele>18.000000</ele>
        <time>2010-01-01T05:45:43Z</time>
      </trkpt>
      <trkpt lat="43.69838000" lon="10.73144000">
        <ele>17.000000</ele>
        <time>2010-01-01T05:48:24Z</time>
      </trkpt>
      <trkpt lat="43.69726000" lon="10.72380000">
        <ele>16.000000</ele>
        <time>2010-01-01T05:52:09Z</time>
      </trkpt>
      <trkpt lat="43.69675000" lon="10.72035000">
        <ele>16.000000</ele>
        <time>2010-01-01T05:53:51Z</time>
      </trkpt>
      <trkpt lat="43.69579000" lon="10.71392000">
        <ele>16.000000</ele>
        <time>2010-01-01T05:57:01Z</time>
      </trkpt>
      <trkpt lat="43.69488000" lon="10.70768000">
        <ele>15.000000</ele>
        <time>2010-01-01T06:00:05Z</time>
      </trkpt>
      <trkpt lat="43.69491000" lon="10.70711000">
        <ele>14.000000</ele>
        <time>2010-01-01T06:00:22Z</time>
      </trkpt>
      <trkpt lat="43.69483000" lon="10.70696000">
        <ele>14.000000</ele>
        <time>2010-01-01T06:00:27Z</time>
      </trkpt>
      <trkpt lat="43.69304990" lon="10.70647710">
        <ele>13.000000</ele>
        <time>2010-01-01T06:01:40Z</time>
      </trkpt>
      <trkpt lat="43.69291800" lon="10.70627330">
        <ele>13.000000</ele>
        <time>2010-01-01T06:01:48Z</time>
      </trkpt>
      <trkpt lat="43.69270080" lon="10.70619820">
        <ele>13.000000</ele>
        <time>2010-01-01T06:01:57Z</time>
      </trkpt>
      <trkpt lat="43.69233620" lon="10.70554370">
        <ele>12.000000</ele>
        <time>2010-01-01T06:02:21Z</time>
      </trkpt>
      <trkpt lat="43.68987700" lon="10.70343010">
        <ele>14.000000</ele>
        <time>2010-01-01T06:04:17Z</time>
      </trkpt>
      <trkpt lat="43.68944260" lon="10.70327990">
        <ele>13.000000</ele>
        <time>2010-01-01T06:04:35Z</time>
      </trkpt>
      <trkpt lat="43.68889950" lon="10.70323700">
        <ele>13.000000</ele>
        <time>2010-01-01T06:04:56Z</time>
      </trkpt>
      <trkpt lat="43.68576520" lon="10.70364470">
        <ele>14.000000</ele>
        <time>2010-01-01T06:07:02Z</time>
      </trkpt>
      <trkpt lat="43.68427550" lon="10.70334430">
        <ele>15.000000</ele>
        <time>2010-01-01T06:08:03Z</time>
      </trkpt>
      <trkpt lat="43.68379450" lon="10.70300100">
        <ele>16.000000</ele>
        <time>2010-01-01T06:08:24Z</time>
      </trkpt>
      <trkpt lat="43.67885980" lon="10.69439640">
        <ele>14.000000</ele>
        <time>2010-01-01T06:13:42Z</time>
      </trkpt>
      <trkpt lat="43.67732340" lon="10.69064140">
        <ele>16.000000</ele>
        <time>2010-01-01T06:15:47Z</time>
      </trkpt>
      <trkpt lat="43.67702850" lon="10.68742270">
        <ele>16.000000</ele>
        <time>2010-01-01T06:17:21Z</time>
      </trkpt>
      <trkpt lat="43.67653190" lon="10.68602800">
        <ele>15.000000</ele>
        <time>2010-01-01T06:18:06Z</time>
      </trkpt>
      <trkpt lat="43.67494890" lon="10.68008420">
        <ele>14.000000</ele>
        <time>2010-01-01T06:21:09Z</time>
      </trkpt>
      <trkpt lat="43.67490240" lon="10.67875380">
        <ele>12.000000</ele>
        <time>2010-01-01T06:21:48Z</time>
      </trkpt>
      <trkpt lat="43.67550770" lon="10.67673680">
        <ele>15.000000</ele>
        <time>2010-01-01T06:22:51Z</time>
      </trkpt>
      <trkpt lat="43.67545330" lon="10.67056770">
        <ele>10.000000</ele>
        <time>2010-01-01T06:25:50Z</time>
      </trkpt>
      <trkpt lat="43.67575600" lon="10.67019220">
        <ele>13.000000</ele>
        <time>2010-01-01T06:26:06Z</time>
      </trkpt>
      <trkpt lat="43.67792870" lon="10.66989180">
        <ele>15.000000</ele>
        <time>2010-01-01T06:27:33Z</time>
      </trkpt>
      <trkpt lat="43.67876670" lon="10.66959140">
        <ele>16.000000</ele>
        <time>2010-01-01T06:28:08Z</time>
      </trkpt>
      <trkpt lat="43.68075300" lon="10.66838970">
        <ele>15.000000</ele>
        <time>2010-01-01T06:29:35Z</time>
      </trkpt>
      <trkpt lat="43.68196340" lon="10.66791770">
        <ele>16.000000</ele>
        <time>2010-01-01T06:30:25Z</time>
      </trkpt>
      <trkpt lat="43.68323590" lon="10.66785330">
        <ele>16.000000</ele>
        <time>2010-01-01T06:31:16Z</time>
      </trkpt>
      <trkpt lat="43.68468000" lon="10.66702000">
        <ele>15.000000</ele>
        <time>2010-01-01T06:32:19Z</time>
      </trkpt>
      <trkpt lat="43.68443000" lon="10.66594000">
        <ele>17.000000</ele>
        <time>2010-01-01T06:32:52Z</time>
      </trkpt>
      <trkpt lat="43.68438000" lon="10.66564000">
        <ele>16.000000</ele>
        <time>2010-01-01T06:33:01Z</time>
      </trkpt>
      <trkpt lat="43.68439000" lon="10.66546000">
        <ele>16.000000</ele>
        <time>2010-01-01T06:33:06Z</time>
      </trkpt>
      <trkpt lat="43.68471000" lon="10.66506000">
        <ele>15.000000</ele>
        <time>2010-01-01T06:33:23Z</time>
      </trkpt>
      <trkpt lat="43.68479000" lon="10.66484000">
        <ele>16.000000</ele>
        <time>2010-01-01T06:33:30Z</time>
      </trkpt>
      <trkpt lat="43.68478000" lon="10.66451000">
        <ele>17.000000</ele>
        <time>2010-01-01T06:33:40Z</time>
      </trkpt>
      <trkpt lat="43.68466350" lon="10.66358320">
        <ele>16.000000</ele>
        <time>2010-01-01T06:34:07Z</time>
      </trkpt>
      <trkpt lat="43.68453000" lon="10.66176000">
        <ele>18.000000</ele>
        <time>2010-01-01T06:35:00Z</time>
      </trkpt>
      <trkpt lat="43.68435000" lon="10.65839000">
        <ele>20.000000</ele>
        <time>2010-01-01T06:36:38Z</time>
      </trkpt>
      <trkpt lat="43.68433000" lon="10.65748000">
        <ele>18.000000</ele>
        <time>2010-01-01T06:37:04Z</time>
      </trkpt>
      <trkpt lat="43.68438000" lon="10.65685000">
        <ele>16.000000</ele>
        <time>2010-01-01T06:37:23Z</time>
      </trkpt>
      <trkpt lat="43.68453000" lon="10.65631000">
        <ele>16.000000</ele>
        <time>2010-01-01T06:37:39Z</time>
      </trkpt>
      <trkpt lat="43.68459000" lon="10.65603000">
        <ele>17.000000</ele>
        <time>2010-01-01T06:37:48Z</time>
      </trkpt>
      <trkpt lat="43.68460000" lon="10.65571000">
        <ele>18.000000</ele>
        <time>2010-01-01T06:37:57Z</time>
      </trkpt>
      <trkpt lat="43.68455000" lon="10.65499000">
        <ele>19.000000</ele>
        <time>2010-01-01T06:38:18Z</time>
      </trkpt>
      <trkpt lat="43.68463000" lon="10.65423000">
        <ele>23.000000</ele>
        <time>2010-01-01T06:38:40Z</time>
      </trkpt>
      <trkpt lat="43.68464000" lon="10.65381000">
        <ele>24.000000</ele>
        <time>2010-01-01T06:38:52Z</time>
      </trkpt>
      <trkpt lat="43.68461000" lon="10.65354000">
        <ele>25.000000</ele>
        <time>2010-01-01T06:39:00Z</time>
      </trkpt>
      <trkpt lat="43.68451000" lon="10.65312000">
        <ele>24.000000</ele>
        <time>2010-01-01T06:39:13Z</time>
      </trkpt>
      <trkpt lat="43.68424000" lon="10.65252000">
        <ele>16.000000</ele>
        <time>2010-01-01T06:39:34Z</time>
      </trkpt>
      <trkpt lat="43.68285000" lon="10.64958000">
        <ele>23.000000</ele>
        <time>2010-01-01T06:41:15Z</time>
      </trkpt>
      <trkpt lat="43.68253000" lon="10.64906000">
        <ele>23.000000</ele>
        <time>2010-01-01T06:41:35Z</time>
      </trkpt>
      <trkpt lat="43.68170000" lon="10.64810000">
        <ele>19.000000</ele>
        <time>2010-01-01T06:42:18Z</time>
      </trkpt>
      <trkpt lat="43.68158000" lon="10.64793000">
        <ele>21.000000</ele>
        <time>2010-01-01T06:42:25Z</time>
      </trkpt>
      <trkpt lat="43.68146000" lon="10.64741000">
        <ele>24.000000</ele>
        <time>2010-01-01T06:42:41Z</time>
      </trkpt>
      <trkpt lat="43.68103000" lon="10.64473000">
        <ele>32.000000</ele>
        <time>2010-01-01T06:44:00Z</time>
      </trkpt>
      <trkpt lat="43.68022000" lon="10.64300000">
        <ele>30.000000</ele>
        <time>2010-01-01T06:45:00Z</time>
      </trkpt>
      <trkpt lat="43.67853390" lon="10.64021580">
        <ele>27.000000</ele>
        <time>2010-01-01T06:46:45Z</time>
      </trkpt>
      <trkpt lat="43.67895290" lon="10.63875670">
        <ele>29.000000</ele>
        <time>2010-01-01T06:47:31Z</time>
      </trkpt>
      <trkpt lat="43.67938000" lon="10.63722000">
        <ele>26.000000</ele>
        <time>2010-01-01T06:48:18Z</time>
      </trkpt>
      <trkpt lat="43.67943000" lon="10.63651000">
        <ele>23.000000</ele>
        <time>2010-01-01T06:48:39Z</time>
      </trkpt>
      <trkpt lat="43.67926000" lon="10.63362000">
        <ele>19.000000</ele>
        <time>2010-01-01T06:50:03Z</time>
      </trkpt>
      <trkpt lat="43.67927000" lon="10.63291000">
        <ele>17.000000</ele>
        <time>2010-01-01T06:50:24Z</time>
      </trkpt>
      <trkpt lat="43.67959000" lon="10.63211000">
        <ele>15.000000</ele>
        <time>2010-01-01T06:50:50Z</time>
      </trkpt>
      <trkpt lat="43.68201000" lon="10.62766000">
        <ele>28.000000</ele>
        <time>2010-01-01T06:53:31Z</time>
      </trkpt>
      <trkpt lat="43.68323590" lon="10.62538860">
        <ele>27.000000</ele>
        <time>2010-01-01T06:54:53Z</time>
      </trkpt>
      <trkpt lat="43.68366260" lon="10.62530270">
        <ele>26.000000</ele>
        <time>2010-01-01T06:55:11Z</time>
      </trkpt>
      <trkpt lat="43.68383330" lon="10.62494870">
        <ele>22.000000</ele>
        <time>2010-01-01T06:55:23Z</time>
      </trkpt>
      <trkpt lat="43.68377120" lon="10.62406890">
        <ele>17.000000</ele>
        <time>2010-01-01T06:55:48Z</time>
      </trkpt>
      <trkpt lat="43.68522000" lon="10.61997000">
        <ele>14.000000</ele>
        <time>2010-01-01T06:58:00Z</time>
      </trkpt>
      <trkpt lat="43.68648000" lon="10.61639000">
        <ele>12.000000</ele>
        <time>2010-01-01T06:59:56Z</time>
      </trkpt>
      <trkpt lat="43.68666000" lon="10.61541000">
        <ele>13.000000</ele>
        <time>2010-01-01T07:00:25Z</time>
      </trkpt>
      <trkpt lat="43.68677000" lon="10.61446000">
        <ele>12.000000</ele>
        <time>2010-01-01T07:00:53Z</time>
      </trkpt>
      <trkpt lat="43.68680000" lon="10.61328000">
        <ele>11.000000</ele>
        <time>2010-01-01T07:01:27Z</time>
      </trkpt>
      <trkpt lat="43.68676000" lon="10.61236000">
        <ele>11.000000</ele>
        <time>2010-01-01T07:01:54Z</time>
      </trkpt>
      <trkpt lat="43.68666000" lon="10.61154000">
        <ele>11.000000</ele>
        <time>2010-01-01T07:02:18Z</time>
      </trkpt>
      <trkpt lat="43.68568000" lon="10.60530000">
        <ele>14.000000</ele>
        <time>2010-01-01T07:05:23Z</time>
      </trkpt>
      <trkpt lat="43.68514450" lon="10.60186020">
        <ele>20.000000</ele>
        <time>2010-01-01T07:07:04Z</time>
      </trkpt>
      <trkpt lat="43.68510000" lon="10.60015000">
        <ele>14.000000</ele>
        <time>2010-01-01T07:07:54Z</time>
      </trkpt>
      <trkpt lat="43.68545480" lon="10.59649050">
        <ele>15.000000</ele>
        <time>2010-01-01T07:09:41Z</time>
      </trkpt>
      <trkpt lat="43.68578460" lon="10.59514930">
        <ele>17.000000</ele>
        <time>2010-01-01T07:10:22Z</time>
      </trkpt>
      <trkpt lat="43.68640000" lon="10.59345000">
        <ele>17.000000</ele>
        <time>2010-01-01T07:11:17Z</time>
      </trkpt>
      <trkpt lat="43.68722000" lon="10.59091000">
        <ele>14.000000</ele>
        <time>2010-01-01T07:12:37Z</time>
      </trkpt>
      <trkpt lat="43.68752000" lon="10.58923000">
        <ele>14.000000</ele>
        <time>2010-01-01T07:13:28Z</time>
      </trkpt>
      <trkpt lat="43.68786000" lon="10.58577000">
        <ele>13.000000</ele>
        <time>2010-01-01T07:15:09Z</time>
      </trkpt>
      <trkpt lat="43.68789000" lon="10.58473000">
        <ele>11.000000</ele>
        <time>2010-01-01T07:15:39Z</time>
      </trkpt>
      <trkpt lat="43.68788000" lon="10.58456000">
        <ele>12.000000</ele>
        <time>2010-01-01T07:15:44Z</time>
      </trkpt>
      <trkpt lat="43.68791000" lon="10.58440000">
        <ele>13.000000</ele>
        <time>2010-01-01T07:15:48Z</time>
      </trkpt>
      <trkpt lat="43.68796000" lon="10.58429000">
        <ele>13.000000</ele>
        <time>2010-01-01T07:15:52Z</time>
      </trkpt>
      <trkpt lat="43.68807000" lon="10.58387000">
        <ele>15.000000</ele>
        <time>2010-01-01T07:16:05Z</time>
      </trkpt>
      <trkpt lat="43.68833000" lon="10.58189000">
        <ele>18.000000</ele>
        <time>2010-01-01T07:17:03Z</time>
      </trkpt>
      <trkpt lat="43.68834000" lon="10.58165000">
        <ele>18.000000</ele>
        <time>2010-01-01T07:17:10Z</time>
      </trkpt>
      <trkpt lat="43.68830000" lon="10.58141000">
        <ele>18.000000</ele>
        <time>2010-01-01T07:17:17Z</time>
      </trkpt>
      <trkpt lat="43.68825000" lon="10.58120000">
        <ele>18.000000</ele>
        <time>2010-01-01T07:17:24Z</time>
      </trkpt>
      <trkpt lat="43.68822000" lon="10.58113000">
        <ele>18.000000</ele>
        <time>2010-01-01T07:17:26Z</time>
      </trkpt>
      <trkpt lat="43.68730130" lon="10.57975350">
        <ele>17.000000</ele>
        <time>2010-01-01T07:18:20Z</time>
      </trkpt>
      <trkpt lat="43.68668000" lon="10.57921000">
        <ele>14.000000</ele>
        <time>2010-01-01T07:18:50Z</time>
      </trkpt>
      <trkpt lat="43.68615000" lon="10.57869000">
        <ele>15.000000</ele>
        <time>2010-01-01T07:19:16Z</time>
      </trkpt>
      <trkpt lat="43.68513000" lon="10.57775000">
        <ele>16.000000</ele>
        <time>2010-01-01T07:20:05Z</time>
      </trkpt>
      <trkpt lat="43.68414000" lon="10.57692000">
        <ele>16.000000</ele>
        <time>2010-01-01T07:20:51Z</time>
      </trkpt>
      <trkpt lat="43.68368000" lon="10.57643000">
        <ele>17.000000</ele>
        <time>2010-01-01T07:21:15Z</time>
      </trkpt>
      <trkpt lat="43.68353000" lon="10.57624000">
        <ele>17.000000</ele>
        <time>2010-01-01T07:21:23Z</time>
      </trkpt>
      <trkpt lat="43.68221000" lon="10.57363000">
        <ele>12.000000</ele>
        <time>2010-01-01T07:22:55Z</time>
      </trkpt>
      <trkpt lat="43.68130000" lon="10.57182000">
        <ele>13.000000</ele>
        <time>2010-01-01T07:23:59Z</time>
      </trkpt>
      <trkpt lat="43.68112000" lon="10.57144000">
        <ele>13.000000</ele>
        <time>2010-01-01T07:24:12Z</time>
      </trkpt>
      <trkpt lat="43.68098000" lon="10.57110000">
        <ele>14.000000</ele>
        <time>2010-01-01T07:24:23Z</time>
      </trkpt>
      <trkpt lat="43.68092000" lon="10.57090000">
        <ele>14.000000</ele>
        <time>2010-01-01T07:24:29Z</time>
      </trkpt>
      <trkpt lat="43.68078000" lon="10.57019000">
        <ele>15.000000</ele>
        <time>2010-01-01T07:24:51Z</time>
      </trkpt>
      <trkpt lat="43.68059000" lon="10.56857000">
        <ele>11.000000</ele>
        <time>2010-01-01T07:25:38Z</time>
      </trkpt>
      <trkpt lat="43.68049000" lon="10.56780000">
        <ele>12.000000</ele>
        <time>2010-01-01T07:26:01Z</time>
      </trkpt>
      <trkpt lat="43.68043000" lon="10.56718000">
        <ele>14.000000</ele>
        <time>2010-01-01T07:26:19Z</time>
      </trkpt>
      <trkpt lat="43.68041000" lon="10.56685000">
        <ele>14.000000</ele>
        <time>2010-01-01T07:26:29Z</time>
      </trkpt>
      <trkpt lat="43.68044000" lon="10.56639000">
        <ele>14.000000</ele>
        <time>2010-01-01T07:26:42Z</time>
      </trkpt>
      <trkpt lat="43.68050000" lon="10.56590000">
        <ele>13.000000</ele>
        <time>2010-01-01T07:26:56Z</time>
      </trkpt>
      <trkpt lat="43.68068000" lon="10.56524000">
        <ele>14.000000</ele>
        <time>2010-01-01T07:27:17Z</time>
      </trkpt>
      <trkpt lat="43.68163000" lon="10.56304000">
        <ele>13.000000</ele>
        <time>2010-01-01T07:28:31Z</time>
      </trkpt>
      <trkpt lat="43.68280000" lon="10.56119000">
        <ele>15.000000</ele>
        <time>2010-01-01T07:29:42Z</time>
      </trkpt>
      <trkpt lat="43.68298000" lon="10.56089000">
        <ele>14.000000</ele>
        <time>2010-01-01T07:29:53Z</time>
      </trkpt>
      <trkpt lat="43.68338000" lon="10.55998000">
        <ele>16.000000</ele>
        <time>2010-01-01T07:30:24Z</time>
      </trkpt>
      <trkpt lat="43.68388000" lon="10.55867000">
        <ele>13.000000</ele>
        <time>2010-01-01T07:31:07Z</time>
      </trkpt>
      <trkpt lat="43.68408000" lon="10.55807000">
        <ele>14.000000</ele>
        <time>2010-01-01T07:31:26Z</time>
      </trkpt>
      <trkpt lat="43.68425000" lon="10.55743000">
        <ele>14.000000</ele>
        <time>2010-01-01T07:31:46Z</time>
      </trkpt>
      <trkpt lat="43.68438000" lon="10.55672000">
        <ele>17.000000</ele>
        <time>2010-01-01T07:32:07Z</time>
      </trkpt>
      <trkpt lat="43.68467000" lon="10.55382000">
        <ele>15.000000</ele>
        <time>2010-01-01T07:33:32Z</time>
      </trkpt>
      <trkpt lat="43.68465000" lon="10.55366000">
        <ele>14.000000</ele>
        <time>2010-01-01T07:33:37Z</time>
      </trkpt>
      <trkpt lat="43.68451000" lon="10.55301000">
        <ele>13.000000</ele>
        <time>2010-01-01T07:33:56Z</time>
      </trkpt>
      <trkpt lat="43.68445000" lon="10.55254000">
        <ele>14.000000</ele>
        <time>2010-01-01T07:34:10Z</time>
      </trkpt>
      <trkpt lat="43.68445000" lon="10.55223000">
        <ele>14.000000</ele>
        <time>2010-01-01T07:34:19Z</time>
      </trkpt>
      <trkpt lat="43.68450000" lon="10.55110000">
        <ele>11.000000</ele>
        <time>2010-01-01T07:34:52Z</time>
      </trkpt>
      <trkpt lat="43.68459000" lon="10.55045000">
        <ele>12.000000</ele>
        <time>2010-01-01T07:35:11Z</time>
      </trkpt>
      <trkpt lat="43.68515000" lon="10.54801000">
        <ele>14.000000</ele>
        <time>2010-01-01T07:36:25Z</time>
      </trkpt>
      <trkpt lat="43.68544000" lon="10.54681000">
        <ele>15.000000</ele>
        <time>2010-01-01T07:37:02Z</time>
      </trkpt>
      <trkpt lat="43.68560000" lon="10.54622000">
        <ele>14.000000</ele>
        <time>2010-01-01T07:37:20Z</time>
      </trkpt>
      <trkpt lat="43.68657000" lon="10.54411000">
        <ele>14.000000</ele>
        <time>2010-01-01T07:38:32Z</time>
      </trkpt>
      <trkpt lat="43.68714000" lon="10.54283000">
        <ele>15.000000</ele>
        <time>2010-01-01T07:39:16Z</time>
      </trkpt>
      <trkpt lat="43.68733000" lon="10.54215000">
        <ele>14.000000</ele>
        <time>2010-01-01T07:39:37Z</time>
      </trkpt>
      <trkpt lat="43.68789000" lon="10.53975000">
        <ele>15.000000</ele>
        <time>2010-01-01T07:40:50Z</time>
      </trkpt>
      <trkpt lat="43.68876000" lon="10.53605000">
        <ele>10.000000</ele>
        <time>2010-01-01T07:42:43Z</time>
      </trkpt>
      <trkpt lat="43.68988000" lon="10.53105000">
        <ele>16.000000</ele>
        <time>2010-01-01T07:45:14Z</time>
      </trkpt>
      <trkpt lat="43.69042000" lon="10.52852000">
        <ele>18.000000</ele>
        <time>2010-01-01T07:46:30Z</time>
      </trkpt>
      <trkpt lat="43.69047000" lon="10.52834000">
        <ele>18.000000</ele>
        <time>2010-01-01T07:46:36Z</time>
      </trkpt>
      <trkpt lat="43.69074000" lon="10.52765000">
        <ele>17.000000</ele>
        <time>2010-01-01T07:46:59Z</time>
      </trkpt>
      <trkpt lat="43.69113000" lon="10.52684000">
        <ele>14.000000</ele>
        <time>2010-01-01T07:47:27Z</time>
      </trkpt>
      <trkpt lat="43.69123000" lon="10.52669000">
        <ele>13.000000</ele>
        <time>2010-01-01T07:47:33Z</time>
      </trkpt>
      <trkpt lat="43.69190000" lon="10.52581000">
        <ele>17.000000</ele>
        <time>2010-01-01T07:48:10Z</time>
      </trkpt>
      <trkpt lat="43.69205000" lon="10.52553000">
        <ele>20.000000</ele>
        <time>2010-01-01T07:48:20Z</time>
      </trkpt>
      <trkpt lat="43.69276000" lon="10.52343000">
        <ele>16.000000</ele>
        <time>2010-01-01T07:49:27Z</time>
      </trkpt>
      <trkpt lat="43.69331000" lon="10.52182000">
        <ele>14.000000</ele>
        <time>2010-01-01T07:50:19Z</time>
      </trkpt>
      <trkpt lat="43.69357000" lon="10.52118000">
        <ele>14.000000</ele>
        <time>2010-01-01T07:50:40Z</time>
      </trkpt>
      <trkpt lat="43.69421000" lon="10.52058000">
        <ele>16.000000</ele>
        <time>2010-01-01T07:51:11Z</time>
      </trkpt>
      <trkpt lat="43.69488000" lon="10.51993000">
        <ele>13.000000</ele>
        <time>2010-01-01T07:51:43Z</time>
      </trkpt>
      <trkpt lat="43.69576000" lon="10.51920000">
        <ele>15.000000</ele>
        <time>2010-01-01T07:52:25Z</time>
      </trkpt>
      <trkpt lat="43.69640000" lon="10.51894000">
        <ele>15.000000</ele>
        <time>2010-01-01T07:52:51Z</time>
      </trkpt>
      <trkpt lat="43.69680000" lon="10.51871000">
        <ele>17.000000</ele>
        <time>2010-01-01T07:53:09Z</time>
      </trkpt>
      <trkpt lat="43.69711000" lon="10.51844000">
        <ele>15.000000</ele>
        <time>2010-01-01T07:53:23Z</time>
      </trkpt>
      <trkpt lat="43.69786000" lon="10.51771000">
        <ele>14.000000</ele>
        <time>2010-01-01T07:54:00Z</time>
      </trkpt>
      <trkpt lat="43.69822000" lon="10.51749000">
        <ele>14.000000</ele>
        <time>2010-01-01T07:54:16Z</time>
      </trkpt>
      <trkpt lat="43.69850000" lon="10.51722000">
        <ele>15.000000</ele>
        <time>2010-01-01T07:54:29Z</time>
      </trkpt>
      <trkpt lat="43.69934000" lon="10.51618000">
        <ele>14.000000</ele>
        <time>2010-01-01T07:55:15Z</time>
      </trkpt>
      <trkpt lat="43.69982000" lon="10.51554000">
        <ele>13.000000</ele>
        <time>2010-01-01T07:55:41Z</time>
      </trkpt>
      <trkpt lat="43.69999630" lon="10.51541800">
        <ele>14.000000</ele>
        <time>2010-01-01T07:55:49Z</time>
      </trkpt>
      <trkpt lat="43.70001000" lon="10.51522000">
        <ele>12.000000</ele>
        <time>2010-01-01T07:55:55Z</time>
      </trkpt>
      <trkpt lat="43.70023000" lon="10.51487000">
        <ele>11.000000</ele>
        <time>2010-01-01T07:56:08Z</time>
      </trkpt>
      <trkpt lat="43.70043000" lon="10.51468000">
        <ele>8.0000000</ele>
        <time>2010-01-01T07:56:18Z</time>
      </trkpt>
      <trkpt lat="43.70096000" lon="10.51396000">
        <ele>10.000000</ele>
        <time>2010-01-01T07:56:48Z</time>
      </trkpt>
      <trkpt lat="43.70170000" lon="10.51291000">
        <ele>9.0000000</ele>
        <time>2010-01-01T07:57:30Z</time>
      </trkpt>
      <trkpt lat="43.70214100" lon="10.51177020">
        <ele>15.000000</ele>
        <time>2010-01-01T07:58:08Z</time>
      </trkpt>
      <trkpt lat="43.70264000" lon="10.51001000">
        <ele>16.000000</ele>
        <time>2010-01-01T07:59:02Z</time>
      </trkpt>
      <trkpt lat="43.70284000" lon="10.50956000">
        <ele>16.000000</ele>
        <time>2010-01-01T07:59:18Z</time>
      </trkpt>
      <trkpt lat="43.70318000" lon="10.50893000">
        <ele>18.000000</ele>
        <time>2010-01-01T07:59:40Z</time>
      </trkpt>
      <trkpt lat="43.70342000" lon="10.50864000">
        <ele>16.000000</ele>
        <time>2010-01-01T07:59:53Z</time>
      </trkpt>
      <trkpt lat="43.70433000" lon="10.50771000">
        <ele>11.000000</ele>
        <time>2010-01-01T08:00:38Z</time>
      </trkpt>
      <trkpt lat="43.70491000" lon="10.50703000">
        <ele>11.000000</ele>
        <time>2010-01-01T08:01:09Z</time>
      </trkpt>
      <trkpt lat="43.70570000" lon="10.50592000">
        <ele>14.000000</ele>
        <time>2010-01-01T08:01:54Z</time>
      </trkpt>
      <trkpt lat="43.70637970" lon="10.50507540">
        <ele>12.000000</ele>
        <time>2010-01-01T08:02:30Z</time>
      </trkpt>
      <trkpt lat="43.70680000" lon="10.50443000">
        <ele>10.000000</ele>
        <time>2010-01-01T08:02:56Z</time>
      </trkpt>
      <trkpt lat="43.70693810" lon="10.50431900">
        <ele>10.000000</ele>
        <time>2010-01-01T08:03:02Z</time>
      </trkpt>
      <trkpt lat="43.70701000" lon="10.50416000">
        <ele>11.000000</ele>
        <time>2010-01-01T08:03:07Z</time>
      </trkpt>
      <trkpt lat="43.70746000" lon="10.50398000">
        <ele>11.000000</ele>
        <time>2010-01-01T08:03:26Z</time>
      </trkpt>
      <trkpt lat="43.70772000" lon="10.50385000">
        <ele>11.000000</ele>
        <time>2010-01-01T08:03:37Z</time>
      </trkpt>
      <trkpt lat="43.70782000" lon="10.50379000">
        <ele>11.000000</ele>
        <time>2010-01-01T08:03:42Z</time>
      </trkpt>
      <trkpt lat="43.70787000" lon="10.50374000">
        <ele>11.000000</ele>
        <time>2010-01-01T08:03:44Z</time>
      </trkpt>
      <trkpt lat="43.70785000" lon="10.50371000">
        <ele>11.000000</ele>
        <time>2010-01-01T08:03:45Z</time>
      </trkpt>
      <trkpt lat="43.70785000" lon="10.50367000">
        <ele>11.000000</ele>
        <time>2010-01-01T08:03:46Z</time>
      </trkpt>
      <trkpt lat="43.70787000" lon="10.50360000">
        <ele>11.000000</ele>
        <time>2010-01-01T08:03:49Z</time>
      </trkpt>
      <trkpt lat="43.70799000" lon="10.50340000">
        <ele>11.000000</ele>
        <time>2010-01-01T08:03:56Z</time>
      </trkpt>
      <trkpt lat="43.70884000" lon="10.50188000">
        <ele>8.0000000</ele>
        <time>2010-01-01T08:04:52Z</time>
      </trkpt>
      <trkpt lat="43.70918000" lon="10.50138000">
        <ele>4.0000000</ele>
        <time>2010-01-01T08:05:12Z</time>
      </trkpt>
      <trkpt lat="43.70933000" lon="10.50124000">
        <ele>4.0000000</ele>
        <time>2010-01-01T08:05:19Z</time>
      </trkpt>
      <trkpt lat="43.71035000" lon="10.50067000">
        <ele>6.0000000</ele>
        <time>2010-01-01T08:06:03Z</time>
      </trkpt>
      <trkpt lat="43.71060000" lon="10.50047000">
        <ele>7.0000000</ele>
        <time>2010-01-01T08:06:14Z</time>
      </trkpt>
      <trkpt lat="43.71100000" lon="10.50008000">
        <ele>6.0000000</ele>
        <time>2010-01-01T08:06:34Z</time>
      </trkpt>
      <trkpt lat="43.71251000" lon="10.49849000">
        <ele>6.0000000</ele>
        <time>2010-01-01T08:07:50Z</time>
      </trkpt>
      <trkpt lat="43.71270000" lon="10.49824000">
        <ele>6.0000000</ele>
        <time>2010-01-01T08:08:00Z</time>
      </trkpt>
      <trkpt lat="43.71319000" lon="10.49727000">
        <ele>4.0000000</ele>
        <time>2010-01-01T08:08:35Z</time>
      </trkpt>
      <trkpt lat="43.71337000" lon="10.49696000">
        <ele>5.0000000</ele>
        <time>2010-01-01T08:08:46Z</time>
      </trkpt>
      <trkpt lat="43.71354000" lon="10.49678000">
        <ele>6.0000000</ele>
        <time>2010-01-01T08:08:55Z</time>
      </trkpt>
      <trkpt lat="43.71387000" lon="10.49650000">
        <ele>10.000000</ele>
        <time>2010-01-01T08:09:10Z</time>
      </trkpt>
      <trkpt lat="43.71405000" lon="10.49630000">
        <ele>10.000000</ele>
        <time>2010-01-01T08:09:20Z</time>
      </trkpt>
      <trkpt lat="43.71429000" lon="10.49594000">
        <ele>8.0000000</ele>
        <time>2010-01-01T08:09:34Z</time>
      </trkpt>
      <trkpt lat="43.71438000" lon="10.49575000">
        <ele>6.0000000</ele>
        <time>2010-01-01T08:09:40Z</time>
      </trkpt>
      <trkpt lat="43.71446000" lon="10.49531000">
        <ele>5.0000000</ele>
        <time>2010-01-01T08:09:53Z</time>
      </trkpt>
      <trkpt lat="43.71474000" lon="10.49439000">
        <ele>5.0000000</ele>
        <time>2010-01-01T08:10:22Z</time>
      </trkpt>
      <trkpt lat="43.71474000" lon="10.49433000">
        <ele>5.0000000</ele>
        <time>2010-01-01T08:10:24Z</time>
      </trkpt>
      <trkpt lat="43.71465000" lon="10.49396000">
        <ele>6.0000000</ele>
        <time>2010-01-01T08:10:35Z</time>
      </trkpt>
      <trkpt lat="43.71435000" lon="10.49313000">
        <ele>6.0000000</ele>
        <time>2010-01-01T08:11:02Z</time>
      </trkpt>
      <trkpt lat="43.71432000" lon="10.49292000">
        <ele>7.0000000</ele>
        <time>2010-01-01T08:11:08Z</time>
      </trkpt>
      <trkpt lat="43.71432000" lon="10.49238000">
        <ele>7.0000000</ele>
        <time>2010-01-01T08:11:24Z</time>
      </trkpt>
      <trkpt lat="43.71429000" lon="10.49207000">
        <ele>6.0000000</ele>
        <time>2010-01-01T08:11:33Z</time>
      </trkpt>
      <trkpt lat="43.71423000" lon="10.49179000">
        <ele>5.0000000</ele>
        <time>2010-01-01T08:11:41Z</time>
      </trkpt>
      <trkpt lat="43.71415000" lon="10.49156000">
        <ele>6.0000000</ele>
        <time>2010-01-01T08:11:49Z</time>
      </trkpt>
      <trkpt lat="43.71408000" lon="10.49147000">
        <ele>6.0000000</ele>
        <time>2010-01-01T08:11:53Z</time>
      </trkpt>
      <trkpt lat="43.71370000" lon="10.49114000">
        <ele>7.0000000</ele>
        <time>2010-01-01T08:12:11Z</time>
      </trkpt>
      <trkpt lat="43.71244000" lon="10.48996000">
        <ele>4.0000000</ele>
        <time>2010-01-01T08:13:12Z</time>
      </trkpt>
      <trkpt lat="43.71211000" lon="10.48961000">
        <ele>5.0000000</ele>
        <time>2010-01-01T08:13:28Z</time>
      </trkpt>
      <trkpt lat="43.71181000" lon="10.48921000">
        <ele>5.0000000</ele>
        <time>2010-01-01T08:13:45Z</time>
      </trkpt>
      <trkpt lat="43.71108000" lon="10.48814000">
        <ele>4.0000000</ele>
        <time>2010-01-01T08:14:27Z</time>
      </trkpt>
      <trkpt lat="43.71068000" lon="10.48771000">
        <ele>5.0000000</ele>
        <time>2010-01-01T08:14:48Z</time>
      </trkpt>
      <trkpt lat="43.71048000" lon="10.48753000">
        <ele>5.0000000</ele>
        <time>2010-01-01T08:14:57Z</time>
      </trkpt>
      <trkpt lat="43.71006000" lon="10.48721000">
        <ele>6.0000000</ele>
        <time>2010-01-01T08:15:16Z</time>
      </trkpt>
      <trkpt lat="43.71002000" lon="10.48715000">
        <ele>6.0000000</ele>
        <time>2010-01-01T08:15:19Z</time>
      </trkpt>
      <trkpt lat="43.70999000" lon="10.48709000">
        <ele>6.0000000</ele>
        <time>2010-01-01T08:15:21Z</time>
      </trkpt>
      <trkpt lat="43.70998000" lon="10.48701000">
        <ele>6.0000000</ele>
        <time>2010-01-01T08:15:23Z</time>
      </trkpt>
      <trkpt lat="43.70998000" lon="10.48673000">
        <ele>5.0000000</ele>
        <time>2010-01-01T08:15:31Z</time>
      </trkpt>
      <trkpt lat="43.70995000" lon="10.48645000">
        <ele>5.0000000</ele>
        <time>2010-01-01T08:15:40Z</time>
      </trkpt>
      <trkpt lat="43.70990000" lon="10.48615000">
        <ele>5.0000000</ele>
        <time>2010-01-01T08:15:48Z</time>
      </trkpt>
      <trkpt lat="43.70981000" lon="10.48515000">
        <ele>5.0000000</ele>
        <time>2010-01-01T08:16:18Z</time>
      </trkpt>
      <trkpt lat="43.70982000" lon="10.48418000">
        <ele>6.0000000</ele>
        <time>2010-01-01T08:16:46Z</time>
      </trkpt>
      <trkpt lat="43.71001000" lon="10.48339000">
        <ele>6.0000000</ele>
        <time>2010-01-01T08:17:10Z</time>
      </trkpt>
      <trkpt lat="43.71002000" lon="10.48337000">
        <ele>6.0000000</ele>
        <time>2010-01-01T08:17:11Z</time>
      </trkpt>
      <trkpt lat="43.71041000" lon="10.48201000">
        <ele>7.0000000</ele>
        <time>2010-01-01T08:17:53Z</time>
      </trkpt>
      <trkpt lat="43.71068000" lon="10.48112000">
        <ele>6.0000000</ele>
        <time>2010-01-01T08:18:21Z</time>
      </trkpt>
      <trkpt lat="43.71108000" lon="10.47946000">
        <ele>7.0000000</ele>
        <time>2010-01-01T08:19:11Z</time>
      </trkpt>
      <trkpt lat="43.71123000" lon="10.47877000">
        <ele>7.0000000</ele>
        <time>2010-01-01T08:19:32Z</time>
      </trkpt>
      <trkpt lat="43.71145000" lon="10.47793000">
        <ele>5.0000000</ele>
        <time>2010-01-01T08:19:58Z</time>
      </trkpt>
      <trkpt lat="43.71200000" lon="10.47641000">
        <ele>6.0000000</ele>
        <time>2010-01-01T08:20:47Z</time>
      </trkpt>
      <trkpt lat="43.71203000" lon="10.47639000">
        <ele>6.0000000</ele>
        <time>2010-01-01T08:20:49Z</time>
      </trkpt>
      <trkpt lat="43.71213000" lon="10.47637000">
        <ele>5.0000000</ele>
        <time>2010-01-01T08:20:53Z</time>
      </trkpt>
      <trkpt lat="43.71267000" lon="10.47627000">
        <ele>8.0000000</ele>
        <time>2010-01-01T08:21:14Z</time>
      </trkpt>
      <trkpt lat="43.71324000" lon="10.47612000">
        <ele>9.0000000</ele>
        <time>2010-01-01T08:21:38Z</time>
      </trkpt>
      <trkpt lat="43.71349000" lon="10.47603000">
        <ele>7.0000000</ele>
        <time>2010-01-01T08:21:48Z</time>
      </trkpt>
      <trkpt lat="43.71362000" lon="10.47599000">
        <ele>6.0000000</ele>
        <time>2010-01-01T08:21:53Z</time>
      </trkpt>
      <trkpt lat="43.71390000" lon="10.47596000">
        <ele>5.0000000</ele>
        <time>2010-01-01T08:22:05Z</time>
      </trkpt>
      <trkpt lat="43.71397000" lon="10.47592000">
        <ele>5.0000000</ele>
        <time>2010-01-01T08:22:08Z</time>
      </trkpt>
      <trkpt lat="43.71408000" lon="10.47582000">
        <ele>5.0000000</ele>
        <time>2010-01-01T08:22:13Z</time>
      </trkpt>
      <trkpt lat="43.71505000" lon="10.47472000">
        <ele>7.0000000</ele>
        <time>2010-01-01T08:23:03Z</time>
      </trkpt>
      <trkpt lat="43.71518000" lon="10.47452000">
        <ele>7.0000000</ele>
        <time>2010-01-01T08:23:11Z</time>
      </trkpt>
      <trkpt lat="43.71531000" lon="10.47426000">
        <ele>6.0000000</ele>
        <time>2010-01-01T08:23:20Z</time>
      </trkpt>
      <trkpt lat="43.71546000" lon="10.47402000">
        <ele>6.0000000</ele>
        <time>2010-01-01T08:23:29Z</time>
      </trkpt>
      <trkpt lat="43.71569000" lon="10.47353000">
        <ele>6.0000000</ele>
        <time>2010-01-01T08:23:46Z</time>
      </trkpt>
      <trkpt lat="43.71582000" lon="10.47334000">
        <ele>6.0000000</ele>
        <time>2010-01-01T08:23:54Z</time>
      </trkpt>
      <trkpt lat="43.71587000" lon="10.47328000">
        <ele>6.0000000</ele>
        <time>2010-01-01T08:23:56Z</time>
      </trkpt>
      <trkpt lat="43.71591000" lon="10.47323000">
        <ele>6.0000000</ele>
        <time>2010-01-01T08:23:59Z</time>
      </trkpt>
      <trkpt lat="43.71674000" lon="10.47267000">
        <ele>6.0000000</ele>
        <time>2010-01-01T08:24:35Z</time>
      </trkpt>
      <trkpt lat="43.71759000" lon="10.47207000">
        <ele>5.0000000</ele>
        <time>2010-01-01T08:25:14Z</time>
      </trkpt>
      <trkpt lat="43.71778000" lon="10.47192000">
        <ele>5.0000000</ele>
        <time>2010-01-01T08:25:22Z</time>
      </trkpt>
      <trkpt lat="43.71811000" lon="10.47155000">
        <ele>5.0000000</ele>
        <time>2010-01-01T08:25:39Z</time>
      </trkpt>
      <trkpt lat="43.71826000" lon="10.47128000">
        <ele>4.0000000</ele>
        <time>2010-01-01T08:25:49Z</time>
      </trkpt>
      <trkpt lat="43.71833000" lon="10.47112000">
        <ele>4.0000000</ele>
        <time>2010-01-01T08:25:55Z</time>
      </trkpt>
      <trkpt lat="43.71859000" lon="10.47012000">
        <ele>5.0000000</ele>
        <time>2010-01-01T08:26:25Z</time>
      </trkpt>
      <trkpt lat="43.71872000" lon="10.46970000">
        <ele>5.0000000</ele>
        <time>2010-01-01T08:26:39Z</time>
      </trkpt>
      <trkpt lat="43.71880000" lon="10.46955000">
        <ele>5.0000000</ele>
        <time>2010-01-01T08:26:44Z</time>
      </trkpt>
      <trkpt lat="43.71899000" lon="10.46929000">
        <ele>5.0000000</ele>
        <time>2010-01-01T08:26:55Z</time>
      </trkpt>
      <trkpt lat="43.71969490" lon="10.46848470">
        <ele>4.0000000</ele>
        <time>2010-01-01T08:27:31Z</time>
      </trkpt>
      <trkpt lat="43.72019000" lon="10.46788000">
        <ele>4.0000000</ele>
        <time>2010-01-01T08:27:58Z</time>
      </trkpt>
      <trkpt lat="43.72027000" lon="10.46786000">
        <ele>4.0000000</ele>
        <time>2010-01-01T08:28:01Z</time>
      </trkpt>
      <trkpt lat="43.72040000" lon="10.46795000">
        <ele>4.0000000</ele>
        <time>2010-01-01T08:28:07Z</time>
      </trkpt>
      <trkpt lat="43.72134000" lon="10.46890000">
        <ele>5.0000000</ele>
        <time>2010-01-01T08:28:53Z</time>
      </trkpt>
      <trkpt lat="43.72186000" lon="10.46936000">
        <ele>4.0000000</ele>
        <time>2010-01-01T08:29:18Z</time>
      </trkpt>
      <trkpt lat="43.72213000" lon="10.46964000">
        <ele>5.0000000</ele>
        <time>2010-01-01T08:29:32Z</time>
      </trkpt>
      <trkpt lat="43.72233000" lon="10.46987000">
        <ele>5.0000000</ele>
        <time>2010-01-01T08:29:42Z</time>
      </trkpt>
      <trkpt lat="43.72294000" lon="10.47049000">
        <ele>4.0000000</ele>
        <time>2010-01-01T08:30:12Z</time>
      </trkpt>
      <trkpt lat="43.72326000" lon="10.47079000">
        <ele>4.0000000</ele>
        <time>2010-01-01T08:30:28Z</time>
      </trkpt>
      <trkpt lat="43.72324000" lon="10.46944000">
        <ele>3.0000000</ele>
        <time>2010-01-01T08:31:07Z</time>
      </trkpt>
      <trkpt lat="43.72324000" lon="10.46841000">
        <ele>5.0000000</ele>
        <time>2010-01-01T08:31:37Z</time>
      </trkpt>
      <trkpt lat="43.72328000" lon="10.46737000">
        <ele>5.0000000</ele>
        <time>2010-01-01T08:32:07Z</time>
      </trkpt>
      <trkpt lat="43.72335000" lon="10.46626000">
        <ele>5.0000000</ele>
        <time>2010-01-01T08:32:39Z</time>
      </trkpt>
      <trkpt lat="43.72336000" lon="10.46614000">
        <ele>5.0000000</ele>
        <time>2010-01-01T08:32:43Z</time>
      </trkpt>
      <trkpt lat="43.72344000" lon="10.46585000">
        <ele>5.0000000</ele>
        <time>2010-01-01T08:32:52Z</time>
      </trkpt>
      <trkpt lat="43.72393000" lon="10.46464000">
        <ele>6.0000000</ele>
        <time>2010-01-01T08:33:32Z</time>
      </trkpt>
      <trkpt lat="43.72438980" lon="10.46360850">
        <ele>5.0000000</ele>
        <time>2010-01-01T08:34:07Z</time>
      </trkpt>
      <trkpt lat="43.72477000" lon="10.46278000">
        <ele>3.0000000</ele>
        <time>2010-01-01T08:34:35Z</time>
      </trkpt>
      <trkpt lat="43.72494000" lon="10.46232000">
        <ele>4.0000000</ele>
        <time>2010-01-01T08:34:50Z</time>
      </trkpt>
      <trkpt lat="43.72539770" lon="10.46107110">
        <ele>4.0000000</ele>
        <time>2010-01-01T08:35:31Z</time>
      </trkpt>
      <trkpt lat="43.72582800" lon="10.45977830">
        <ele>6.0000000</ele>
        <time>2010-01-01T08:36:12Z</time>
      </trkpt>
      <trkpt lat="43.72599860" lon="10.45904330">
        <ele>5.0000000</ele>
        <time>2010-01-01T08:36:34Z</time>
      </trkpt>
      <trkpt lat="43.72598000" lon="10.45851000">
        <ele>5.0000000</ele>
        <time>2010-01-01T08:36:50Z</time>
      </trkpt>
      <trkpt lat="43.72597000" lon="10.45817000">
        <ele>6.0000000</ele>
        <time>2010-01-01T08:36:59Z</time>
      </trkpt>
      <trkpt lat="43.72604000" lon="10.45673000">
        <ele>4.0000000</ele>
        <time>2010-01-01T08:37:41Z</time>
      </trkpt>
      <trkpt lat="43.72614000" lon="10.45508000">
        <ele>5.0000000</ele>
        <time>2010-01-01T08:38:29Z</time>
      </trkpt>
      <trkpt lat="43.72617000" lon="10.45406000">
        <ele>4.0000000</ele>
        <time>2010-01-01T08:38:59Z</time>
      </trkpt>
      <trkpt lat="43.72613000" lon="10.45333000">
        <ele>3.0000000</ele>
        <time>2010-01-01T08:39:20Z</time>
      </trkpt>
      <trkpt lat="43.72622000" lon="10.45194000">
        <ele>5.0000000</ele>
        <time>2010-01-01T08:40:00Z</time>
      </trkpt>
      <trkpt lat="43.72617000" lon="10.45173000">
        <ele>5.0000000</ele>
        <time>2010-01-01T08:40:07Z</time>
      </trkpt>
      <trkpt lat="43.72605000" lon="10.45149000">
        <ele>5.0000000</ele>
        <time>2010-01-01T08:40:15Z</time>
      </trkpt>
      <trkpt lat="43.72551000" lon="10.45057000">
        <ele>4.0000000</ele>
        <time>2010-01-01T08:40:49Z</time>
      </trkpt>
      <trkpt lat="43.72545000" lon="10.45034000">
        <ele>5.0000000</ele>
        <time>2010-01-01T08:40:56Z</time>
      </trkpt>
      <trkpt lat="43.72539000" lon="10.45022000">
        <ele>5.0000000</ele>
        <time>2010-01-01T08:41:01Z</time>
      </trkpt>
      <trkpt lat="43.72531000" lon="10.45010000">
        <ele>5.0000000</ele>
        <time>2010-01-01T08:41:05Z</time>
      </trkpt>
      <trkpt lat="43.72501000" lon="10.44983000">
        <ele>4.0000000</ele>
        <time>2010-01-01T08:41:20Z</time>
      </trkpt>
      <trkpt lat="43.72479000" lon="10.44958000">
        <ele>3.0000000</ele>
        <time>2010-01-01T08:41:31Z</time>
      </trkpt>
      <trkpt lat="43.72464000" lon="10.44935000">
        <ele>3.0000000</ele>
        <time>2010-01-01T08:41:40Z</time>
      </trkpt>
      <trkpt lat="43.72432000" lon="10.44886000">
        <ele>2.0000000</ele>
        <time>2010-01-01T08:41:59Z</time>
      </trkpt>
      <trkpt lat="43.72371000" lon="10.44826000">
        <ele>2.0000000</ele>
        <time>2010-01-01T08:42:29Z</time>
      </trkpt>
      <trkpt lat="43.72265000" lon="10.44737000">
        <ele>5.0000000</ele>
        <time>2010-01-01T08:43:19Z</time>
      </trkpt>
      <trkpt lat="43.72210000" lon="10.44696000">
        <ele>5.0000000</ele>
        <time>2010-01-01T08:43:44Z</time>
      </trkpt>
      <trkpt lat="43.72168000" lon="10.44670000">
        <ele>3.0000000</ele>
        <time>2010-01-01T08:44:02Z</time>
      </trkpt>
      <trkpt lat="43.72149000" lon="10.44666000">
        <ele>3.0000000</ele>
        <time>2010-01-01T08:44:10Z</time>
      </trkpt>
      <trkpt lat="43.72092000" lon="10.44662000">
        <ele>5.0000000</ele>
        <time>2010-01-01T08:44:33Z</time>
      </trkpt>
      <trkpt lat="43.72067000" lon="10.44658000">
        <ele>5.0000000</ele>
        <time>2010-01-01T08:44:43Z</time>
      </trkpt>
      <trkpt lat="43.72030000" lon="10.44649000">
        <ele>6.0000000</ele>
        <time>2010-01-01T08:44:58Z</time>
      </trkpt>
      <trkpt lat="43.71966000" lon="10.44629000">
        <ele>6.0000000</ele>
        <time>2010-01-01T08:45:24Z</time>
      </trkpt>
      <trkpt lat="43.71873000" lon="10.44577000">
        <ele>6.0000000</ele>
        <time>2010-01-01T08:46:04Z</time>
      </trkpt>
      <trkpt lat="43.71750000" lon="10.44524000">
        <ele>6.0000000</ele>
        <time>2010-01-01T08:46:56Z</time>
      </trkpt>
      <trkpt lat="43.71613000" lon="10.44466000">
        <ele>6.0000000</ele>
        <time>2010-01-01T08:47:53Z</time>
      </trkpt>
      <trkpt lat="43.71590000" lon="10.44453000">
        <ele>5.0000000</ele>
        <time>2010-01-01T08:48:03Z</time>
      </trkpt>
      <trkpt lat="43.71481000" lon="10.44385000">
        <ele>2.0000000</ele>
        <time>2010-01-01T08:48:51Z</time>
      </trkpt>
      <trkpt lat="43.71391000" lon="10.44328000">
        <ele>2.0000000</ele>
        <time>2010-01-01T08:49:30Z</time>
      </trkpt>
      <trkpt lat="43.71365000" lon="10.44315000">
        <ele>2.0000000</ele>
        <time>2010-01-01T08:49:42Z</time>
      </trkpt>
      <trkpt lat="43.71286000" lon="10.44279000">
        <ele>5.0000000</ele>
        <time>2010-01-01T08:50:15Z</time>
      </trkpt>
      <trkpt lat="43.71237000" lon="10.44257000">
        <ele>3.0000000</ele>
        <time>2010-01-01T08:50:35Z</time>
      </trkpt>
      <trkpt lat="43.71220000" lon="10.44232000">
        <ele>3.0000000</ele>
        <time>2010-01-01T08:50:45Z</time>
      </trkpt>
      <trkpt lat="43.71211000" lon="10.44201000">
        <ele>2.0000000</ele>
        <time>2010-01-01T08:50:55Z</time>
      </trkpt>
      <trkpt lat="43.71195000" lon="10.44177000">
        <ele>2.0000000</ele>
        <time>2010-01-01T08:51:05Z</time>
      </trkpt>
      <trkpt lat="43.71155000" lon="10.44190000">
        <ele>3.0000000</ele>
        <time>2010-01-01T08:51:21Z</time>
      </trkpt>
      <trkpt lat="43.71130000" lon="10.44194000">
        <ele>3.0000000</ele>
        <time>2010-01-01T08:51:31Z</time>
      </trkpt>
      <trkpt lat="43.71098640" lon="10.44185040">
        <ele>4.0000000</ele>
        <time>2010-01-01T08:51:44Z</time>
      </trkpt>
      <trkpt lat="43.71005000" lon="10.44057000">
        <ele>7.0000000</ele>
        <time>2010-01-01T08:52:37Z</time>
      </trkpt>
      <trkpt lat="43.70883000" lon="10.43882000">
        <ele>2.0000000</ele>
        <time>2010-01-01T08:53:47Z</time>
      </trkpt>
      <trkpt lat="43.70807000" lon="10.43771000">
        <ele>6.0000000</ele>
        <time>2010-01-01T08:54:31Z</time>
      </trkpt>
      <trkpt lat="43.70790000" lon="10.43741000">
        <ele>6.0000000</ele>
        <time>2010-01-01T08:54:42Z</time>
      </trkpt>
      <trkpt lat="43.70782220" lon="10.43723700">
        <ele>5.0000000</ele>
        <time>2010-01-01T08:54:48Z</time>
      </trkpt>
      <trkpt lat="43.70771000" lon="10.43720000">
        <ele>4.0000000</ele>
        <time>2010-01-01T08:54:53Z</time>
      </trkpt>
      <trkpt lat="43.70760000" lon="10.43727000">
        <ele>4.0000000</ele>
        <time>2010-01-01T08:54:58Z</time>
      </trkpt>
      <trkpt lat="43.70755000" lon="10.43748000">
        <ele>5.0000000</ele>
        <time>2010-01-01T08:55:04Z</time>
      </trkpt>
      <trkpt lat="43.70750810" lon="10.43784320">
        <ele>5.0000000</ele>
        <time>2010-01-01T08:55:15Z</time>
      </trkpt>
      <trkpt lat="43.70671000" lon="10.43995000">
        <ele>5.0000000</ele>
        <time>2010-01-01T08:56:23Z</time>
      </trkpt>
      <trkpt lat="43.70648000" lon="10.44054000">
        <ele>4.0000000</ele>
        <time>2010-01-01T08:56:43Z</time>
      </trkpt>
      <trkpt lat="43.70612000" lon="10.44122000">
        <ele>6.0000000</ele>
        <time>2010-01-01T08:57:07Z</time>
      </trkpt>
      <trkpt lat="43.70595000" lon="10.44124000">
        <ele>6.0000000</ele>
        <time>2010-01-01T08:57:14Z</time>
      </trkpt>
      <trkpt lat="43.70586000" lon="10.44119000">
        <ele>6.0000000</ele>
        <time>2010-01-01T08:57:18Z</time>
      </trkpt>
      <trkpt lat="43.70573000" lon="10.44100000">
        <ele>5.0000000</ele>
        <time>2010-01-01T08:57:25Z</time>
      </trkpt>
      <trkpt lat="43.70536000" lon="10.44053000">
        <ele>5.0000000</ele>
        <time>2010-01-01T08:57:46Z</time>
      </trkpt>
      <trkpt lat="43.70467000" lon="10.43996000">
        <ele>4.0000000</ele>
        <time>2010-01-01T08:58:18Z</time>
      </trkpt>
      <trkpt lat="43.70509000" lon="10.43917000">
        <ele>3.0000000</ele>
        <time>2010-01-01T08:58:46Z</time>
      </trkpt>
      <trkpt lat="43.70544510" lon="10.43841710">
        <ele>6.0000000</ele>
        <time>2010-01-01T08:59:12Z</time>
      </trkpt>
    </trkseg>
  </trk>
</gpx>

